Eltham High School

Historical Weather Data

                  Temp     Hi    Low   Out         Wind        Wind    Hi    Hi   Wind   Heat          THSW                Rain  Solar   Solar Hi Solar         UV    Hi     Heat    Cool    In     In          Wind  Wind    ISS   Arc.
  Date    Time     Out   Temp   Temp   Hum    Dew Speed   Dir   Run Speed   Dir  Chill  Index    THW  Index   Bar    Rain  Rate   Rad.  Energy    Rad.    UV   Dose   UV     D-D     D-D    Temp   Hum     ET   Samp   Tx   Recept  Int.
------------------------------------------------------------------------------------------------------------------------------------------------------------------------------------------------------------------------------------------
 2/03/21 12:30a   14.1   14.5   14.1    71    8.9   0.0   ---  0.00   0.0   ---   14.1   13.7   13.7   12.2  1029.1  0.00   0.0     0     0.00      0     0.0  0.00   0.0   0.089   0.000   27.3    38    0.00   649    1     94.9   30 
 2/03/21  1:00a   14.0   14.1   13.9    69    8.4   0.0   ---  0.00   0.0   ---   14.0   13.6   13.6   12.1  1029.2  0.00   0.0     0     0.00      0     0.0  0.00   0.0   0.090   0.000   27.3    37    0.03   698    1    100.0   30 
 2/03/21  1:30a   14.0   14.0   13.9    61    6.6   0.0   ---  0.00   0.0   ---   14.0   13.3   13.3   11.8  1029.3  0.00   0.0     0     0.00      0     0.0  0.00   0.0   0.090   0.000   27.3    37    0.00   701    1    100.0   30 
 2/03/21  2:00a   13.9   14.4   13.9    69    8.3   0.0   ---  0.00   0.0   ---   13.9   13.5   13.5   12.0  1029.3  0.00   0.0     0     0.00      0     0.0  0.00   0.0   0.091   0.000   27.3    36    0.03   702    1    100.0   30 
 2/03/21  2:30a   13.0   13.9   13.0    78    9.3   0.0   ---  0.00   0.0   ---   13.0   12.8   12.8   11.3  1029.4  0.00   0.0     0     0.00      0     0.0  0.00   0.0   0.111   0.000   27.3    36    0.00   701    1    100.0   30 
 2/03/21  3:00a   12.6   13.0   12.6    82    9.6   0.0   ---  0.00   0.0   ---   12.6   12.4   12.4   11.0  1029.5  0.00   0.0     0     0.00      0     0.0  0.00   0.0   0.120   0.000   27.2    36    0.03   701    1    100.0   30 
 2/03/21  3:30a   12.7   12.7   12.6    82    9.7   0.0   ---  0.00   0.0   ---   12.7   12.6   12.6   11.2  1029.3  0.00   0.0     0     0.00      0     0.0  0.00   0.0   0.117   0.000   27.2    36    0.00   701    1    100.0   30 
 2/03/21  4:00a   12.2   12.7   12.2    81    9.1   0.0   ---  0.00   0.0   ---   12.2   12.1   12.1   10.6  1029.5  0.00   0.0     0     0.00      0     0.0  0.00   0.0   0.127   0.000   27.2    36    0.03   701    1    100.0   30 
 2/03/21  4:30a   13.1   13.1   12.2    71    7.9   0.0   ---  0.00   0.0   ---   13.1   12.7   12.7   11.2  1029.5  0.00   0.0     0     0.00      0     0.0  0.00   0.0   0.110   0.000   27.1    36    0.00   699    1    100.0   30 
 2/03/21  5:00a   13.1   13.2   13.1    69    7.5   0.0   ---  0.00   0.0   ---   13.1   12.6   12.6   11.1  1029.4  0.00   0.0     0     0.00      0     0.0  0.00   0.0   0.110   0.000   27.2    36    0.03   703    1    100.0   30 
 2/03/21  5:30a   13.2   13.2   13.1    66    7.0   0.0   ---  0.00   0.0   ---   13.2   12.6   12.6   11.1  1029.2  0.00   0.0     0     0.00      0     0.0  0.00   0.0   0.108   0.000   27.2    35    0.00   698    1    100.0   30 
 2/03/21  6:00a   12.7   13.2   12.7    65    6.3   0.0   ---  0.00   0.0   ---   12.7   12.1   12.1   10.6  1029.3  0.00   0.0     0     0.00      0     0.0  0.00   0.0   0.118   0.000   27.2    35    0.03   702    1    100.0   30 
 2/03/21  6:30a   12.8   12.8   12.5    61    5.4   0.0   ---  0.00   0.0   ---   12.8   12.1   12.1   10.5  1029.6  0.00   0.0     0     0.00      0     0.0  0.00   0.0   0.116   0.000   27.2    35    0.00   700    1    100.0   30 
 2/03/21  7:00a   13.0   13.1   12.8    57    4.7   0.0   ---  0.00   0.0   ---   13.0   12.2   12.2   10.6  1029.7  0.00   0.0     0     0.00      0     0.0  0.00   0.0   0.111   0.000   27.2    35    0.00   701    1    100.0   30 
 2/03/21  7:30a   13.2   13.2   13.0    56    4.6   0.0   ---  0.00   0.0   ---   13.2   12.3   12.3   11.3  1030.1  0.00   0.0    11     0.47     21     0.0  0.00   0.0   0.108   0.000   27.2    34    0.00   703    1    100.0   30 
 2/03/21  8:00a   13.5   13.5   13.2    58    5.4   0.0   ---  0.00   0.0   ---   13.5   12.7   12.7   12.2  1030.2  0.00   0.0    31     1.33     62     0.0  0.00   0.0   0.101   0.000   27.2    34    0.03   702    1    100.0   30 
 2/03/21  8:30a   13.9   13.9   13.4    56    5.2   0.0   ---  0.00   0.0   ---   13.9   13.1   13.1   12.9  1030.7  0.00   0.0    55     2.37     62     0.0  0.00   0.0   0.093   0.000   27.2    34    0.00   702    1    100.0   30 
 2/03/21  9:00a   14.2   14.2   13.9    58    6.1   0.0   ---  0.00   0.0   ---   14.2   13.4   13.4   13.6  1030.9  0.00   0.0    75     3.23    104     0.0  0.00   0.0   0.086   0.000   27.2    34    0.05   698    1    100.0   30 
 2/03/21  9:30a   14.5   14.6   14.2    57    6.1   0.0   ---  0.00   0.0   ---   14.5   13.7   13.7   14.0  1031.3  0.00   0.0    97     4.17    107     0.0  0.00   0.0   0.080   0.000   27.3    34    0.00   701    1    100.0   30 
 2/03/21 10:00a   15.2   15.2   14.5    52    5.4   0.0   ---  0.00   0.0   ---   15.2   14.2   14.2   15.8  1031.3  0.00   0.0   190     8.17    257     0.6  0.13   1.0   0.065   0.000   27.8    34    0.08   700    1    100.0   30 
 2/03/21 10:30a   15.8   15.8   15.2    50    5.4   0.0   ---  0.00   0.0   ---   15.8   14.7   14.7   17.6  1031.3  0.00   0.0   305    13.12    410     1.4  0.30   1.7   0.052   0.000   27.8    33    0.00   702    1    100.0   30 
 2/03/21 11:00a   15.6   15.9   15.6    56    6.8   0.0   ---  0.00   0.0   ---   15.6   14.7   14.7   17.1  1031.8  0.00   0.0   271    11.65    338     1.4  0.30   1.7   0.058   0.000   27.8    32    0.15   703    1    100.0   30 
 2/03/21 11:30a   16.1   16.1   15.6    52    6.2   0.0   ---  0.00   0.0   ---   16.1   15.1   15.1   18.7  1031.7  0.00   0.0   379    16.30    436     2.1  0.45   2.4   0.046   0.000   27.9    32    0.00   702    1    100.0   30 
 2/03/21 12:00p   16.7   16.8   16.1    48    5.6   0.0   ---  0.00   0.0   ---   16.7   15.5   15.5   19.2  1031.8  0.00   0.0   399    17.16    606     2.6  0.56   3.2   0.035   0.000   27.9    31    0.20   703    1    100.0   30 
 2/03/21 12:30p   16.6   16.8   16.4    49    5.8   0.0   ---  0.00   0.0   ---   16.6   15.4   15.4   19.4  1031.8  0.00   0.0   430    18.49    492     2.9  0.62   3.3   0.037   0.000   28.1    31    0.00   698    1    100.0   30 
 2/03/21  1:00p   17.3   17.3   16.6    49    6.5   0.0   ---  0.00   0.0   ---   17.3   16.2   16.2   20.6  1031.7  0.00   0.0   479    20.60    547     3.4  0.73   4.4   0.022   0.000   28.4    30    0.25   702    1    100.0   30 
 2/03/21  1:30p   17.4   17.6   17.1    46    5.7   0.0   ---  0.00   0.0   ---   17.4   16.2   16.2   21.2  1031.5  0.00   0.0   554    23.83    703     4.3  0.92   7.2   0.019   0.000   29.3    31    0.00   701    1    100.0   30 
 2/03/21  2:00p   18.2   18.2   17.4    44    5.7   0.0   ---  0.00   0.0   ---   18.2   16.9   16.9   22.8  1031.4  0.00   0.0   777    33.42   1104     5.4  1.16   6.9   0.003   0.000   29.8    30    0.38   701    1    100.0   30 
 2/03/21  2:30p   18.9   18.9   18.1    43    6.0   0.0   ---  0.00   0.0   ---   18.9   17.6   17.6   23.7  1031.2  0.00   0.0   996    42.83   1229     5.9  1.26   7.1   0.000   0.012   29.5    29    0.00   701    1    100.0   30 
 2/03/21  3:00p   18.1   18.9   17.9    45    6.0   0.0   ---  0.00   0.0   ---   18.1   16.9   16.9   21.9  1031.1  0.00   0.0   553    23.78   1239     4.1  0.88   6.5   0.005   0.000   28.9    28    0.43   695    1    100.0   30 
 2/03/21  3:30p   18.2   18.4   18.1    44    5.7   0.0   ---  0.00   0.0   ---   18.2   16.9   16.9   21.7  1030.9  0.00   0.0   505    21.72   1162     3.8  0.81   5.9   0.003   0.000   28.9    29    0.00   701    1    100.0   30 
 2/03/21  4:00p   18.2   18.3   17.8    47    6.7   0.0   ---  0.00   0.0   ---   18.2   17.1   17.1   21.5  1030.9  0.00   0.0   423    18.19   1013     2.9  0.62   5.0   0.002   0.000   28.7    28    0.30   702    1    100.0   30 
 2/03/21  4:30p   17.1   18.2   17.1    52    7.1   0.0   ---  0.00   0.0   ---   17.1   16.1   16.1   19.2  1030.9  0.00   0.0   283    12.17    353     1.7  0.36   2.9   0.027   0.000   28.5    28    0.00   701    1    100.0   30 
 2/03/21  5:00p   16.9   17.1   16.7    50    6.4   0.0   ---  0.00   0.0   ---   16.9   15.9   15.9   18.7  1030.8  0.00   0.0   240    10.32    343     1.3  0.28   1.8   0.029   0.000   28.3    29    0.15   701    1    100.0   30 
 2/03/21  5:30p   16.9   17.2   16.8    50    6.4   0.0   ---  0.00   0.0   ---   16.9   15.8   15.8   18.7  1031.0  0.00   0.0   217     9.33    301     1.0  0.21   1.3   0.030   0.000   29.1    29    0.00   702    1    100.0   30 
 2/03/21  6:00p   17.7   17.7   16.9    50    7.1   0.0   ---  0.00   0.0   ---   17.7   16.7   16.7   22.3  1031.0  0.00   0.0   384    16.51    582     0.8  0.17   1.2   0.014   0.000   29.5    29    0.18   701    1    100.0   30 
 2/03/21  6:30p   17.0   17.8   17.0    51    6.8   0.0   ---  0.00   0.0   ---   17.0   16.0   16.0   21.8  1031.0  0.00   0.0   336    14.45    478     0.3  0.06   0.8   0.028   0.000   29.7    28    0.00   702    1    100.0   30 
 2/03/21  7:00p   16.1   17.1   16.1    57    7.5   0.0   ---  0.00   0.0   ---   16.1   15.3   15.3   14.6  1031.5  0.00   0.0   105     4.52    278     0.0  0.00   0.0   0.047   0.000   29.8    28    0.13   701    1    100.0   30 
 2/03/21  7:30p   15.7   16.1   15.7    58    7.4   0.0   ---  0.00   0.0   ---   15.7   14.9   14.9   13.4  1031.7  0.00   0.0    40     1.72     54     0.0  0.00   0.0   0.056   0.000   29.8    28    0.00   700    1    100.0   30 
 2/03/21  8:00p   15.3   15.7   15.3    61    7.8   0.0   ---  0.00   0.0   ---   15.3   14.7   14.7   12.9  1031.8  0.00   0.0     7     0.30     21     0.0  0.00   0.0   0.063   0.000   29.8    28    0.03   701    1    100.0   30 
 2/03/21  8:30p   15.1   15.3   15.1    63    8.1   0.0   ---  0.00   0.0   ---   15.1   14.5   14.5   12.6  1032.0  0.00   0.0     0     0.00      0     0.0  0.00   0.0   0.067   0.000   29.7    28    0.00   699    1    100.0   30 
 2/03/21  9:00p   15.1   15.2   15.1    62    7.8   0.0   ---  0.00   0.0   ---   15.1   14.4   14.4   12.5  1032.2  0.00   0.0     0     0.00      0     0.0  0.00   0.0   0.068   0.000   29.5    28    0.00   701    1    100.0   30 
 2/03/21  9:30p   14.7   15.1   14.7    62    7.5   0.0   ---  0.00   0.0   ---   14.7   14.0   14.0   12.1  1032.4  0.00   0.0     0     0.00      0     0.0  0.00   0.0   0.076   0.000   29.5    28    0.00   701    1    100.0   30 
 2/03/21 10:00p   14.3   14.7   14.3    64    7.6   0.0   ---  0.00   0.0   ---   14.3   13.7   13.7   11.8  1032.9  0.00   0.0     0     0.00      0     0.0  0.00   0.0   0.083   0.000   29.4    29    0.03   699    1    100.0   30 
 2/03/21 10:30p   14.0   14.4   14.0    65    7.5   0.0   ---  0.00   0.0   ---   14.0   13.4   13.4   11.6  1032.7  0.00   0.0     0     0.00      0     0.0  0.00   0.0   0.090   0.000   29.3    29    0.00   701    1    100.0   30 
 2/03/21 11:00p   13.8   14.0   13.8    66    7.6   0.0   ---  0.00   0.0   ---   13.8   13.3   13.3   11.4  1032.5  0.00   0.0     0     0.00      0     0.0  0.00   0.0   0.094   0.000   29.2    29    0.03   701    1    100.0   30 
 2/03/21 11:30p   13.7   13.9   13.7    67    7.7   0.0   ---  0.00   0.0   ---   13.7   13.2   13.2   11.3  1032.5  0.00   0.0     0     0.00      0     0.0  0.00   0.0   0.096   0.000   29.1    29    0.00   683    1     99.9   30 
 3/03/21 12:00a   13.5   13.8   13.5    68    7.7   0.0   ---  0.00   0.0   ---   13.5   13.0   13.0   11.1  1032.3  0.00   0.0     0     0.00      0     0.0  0.00   0.0   0.101   0.000   29.1    29    0.03   701    1    100.0   30 
 3/03/21 12:30a   13.3   13.5   13.3    69    7.8   0.0   ---  0.00   0.0   ---   13.3   12.9   12.9   11.0  1032.2  0.00   0.0     0     0.00      0     0.0  0.00   0.0   0.104   0.000   28.9    29    0.00   702    1    100.0   30 
 3/03/21  1:00a   13.3   13.3   13.3    69    7.8   0.0   ---  0.00   0.0   ---   13.3   12.9   12.9   11.0  1032.1  0.00   0.0     0     0.00      0     0.0  0.00   0.0   0.104   0.000   28.8    29    0.03   699    1    100.0   30 
 3/03/21  1:30a   13.3   13.3   13.3    68    7.5   0.0   ---  0.00   0.0   ---   13.3   12.8   12.8   10.9  1032.1  0.00   0.0     0     0.00      0     0.0  0.00   0.0   0.105   0.000   28.7    29    0.00   699    1    100.0   30 
 3/03/21  2:00a   13.4   13.4   13.3    67    7.4   0.0   ---  0.00   0.0   ---   13.4   12.9   12.9   11.0  1032.1  0.00   0.0     0     0.00      0     0.0  0.00   0.0   0.103   0.000   28.6    29    0.00   700    1    100.0   30 
 3/03/21  2:30a   13.9   13.9   13.4    68    8.1   0.0   ---  0.00   0.0   ---   13.9   13.4   13.4   11.6  1031.9  0.00   0.0     0     0.00      0     0.0  0.00   0.0   0.091   0.000   28.6    29    0.03   677    1     99.0   30 
 3/03/21  3:00a   13.9   14.0   13.9    68    8.1   0.0   ---  0.00   0.0   ---   13.9   13.4   13.4   11.6  1031.9  0.00   0.0     0     0.00      0     0.0  0.00   0.0   0.091   0.000   28.5    29    0.03   701    1    100.0   30 
 3/03/21  3:30a   13.9   13.9   13.9    69    8.3   0.0   ---  0.00   0.0   ---   13.9   13.5   13.5   11.7  1031.9  0.00   0.0     0     0.00      0     0.0  0.00   0.0   0.091   0.000   28.5    29    0.00   687    1    100.0   30 
 3/03/21  4:00a   13.9   13.9   13.9    69    8.3   0.0   ---  0.00   0.0   ---   13.9   13.5   13.5   11.7  1031.4  0.00   0.0     0     0.00      0     0.0  0.00   0.0   0.091   0.000   28.5    29    0.03   682    1     99.7   30 
 3/03/21  4:30a   13.9   13.9   13.9    69    8.3   0.0   ---  0.00   0.0   ---   13.9   13.4   13.4   11.6  1031.0  0.00   0.0     0     0.00      0     0.0  0.00   0.0   0.093   0.000   28.4    29    0.00   699    1    100.0   30 
 3/03/21  5:00a   13.8   13.9   13.8    69    8.2   0.0   ---  0.00   0.0   ---   13.8   13.3   13.3   11.4  1031.0  0.00   0.0     0     0.00      0     0.0  0.00   0.0   0.095   0.000   28.4    30    0.03   699    1    100.0   30 
 3/03/21  5:30a   13.7   13.8   13.6    66    7.4   0.0   ---  0.00   0.0   ---   13.7   13.1   13.1   11.2  1031.0  0.00   0.0     0     0.00      0     0.0  0.00   0.0   0.097   0.000   28.4    30    0.00   702    1    100.0   30 
 3/03/21  6:00a   13.9   13.9   13.7    64    7.2   0.0   ---  0.00   0.0   ---   13.9   13.3   13.3   11.4  1031.4  0.00   0.0     0     0.00      0     0.0  0.00   0.0   0.091   0.000   28.3    30    0.03   700    1    100.0   30 
 3/03/21  6:30a   13.8   13.9   13.8    66    7.6   0.0   ---  0.00   0.0   ---   13.8   13.3   13.3   11.4  1031.6  0.00   0.0     0     0.00      0     0.0  0.00   0.0   0.094   0.000   28.3    30    0.00   667    1     97.5   30 
 3/03/21  7:00a   14.0   14.0   13.8    68    8.2   0.0   ---  0.00   0.0   ---   14.0   13.5   13.5   11.6  1032.1  0.00   0.0     0     0.00      0     0.0  0.00   0.0   0.090   0.000   28.2    30    0.03   699    1    100.0   30 
 3/03/21  7:30a   14.1   14.1   14.0    69    8.5   0.0   ---  0.00   0.0   ---   14.1   13.6   13.6   12.5  1032.4  0.00   0.0     4     0.17     14     0.0  0.00   0.0   0.089   0.000   28.2    30    0.00   703    1    100.0   30 
 3/03/21  8:00a   14.3   14.3   14.1    69    8.7   0.0   ---  0.00   0.0   ---   14.3   13.8   13.8   13.2  1032.9  0.00   0.0    24     1.03     33     0.0  0.00   0.0   0.084   0.000   28.2    30    0.03   702    1    100.0   30 
 3/03/21  8:30a   14.4   14.4   14.3    68    8.6   0.0   ---  0.00   0.0   ---   14.4   13.9   13.9   13.7  1032.9  0.00   0.0    48     2.06     69     0.0  0.00   0.0   0.082   0.000   28.3    30    0.00   700    1    100.0   30 
 3/03/21  9:00a   14.6   14.6   14.4    70    9.2   0.0   ---  0.00   0.0   ---   14.6   14.2   14.2   14.6  1033.1  0.00   0.0    88     3.78    162     0.0  0.00   0.0   0.078   0.000   28.4    31    0.05   702    1    100.0   30 
 3/03/21  9:30a   14.9   14.9   14.6    70    9.5   0.0   ---  0.00   0.0   ---   14.9   14.5   14.5   16.7  1033.1  0.00   0.0   207     8.90    330     0.6  0.13   0.9   0.072   0.000   27.7    32    0.00   700    1    100.0   30 
 3/03/21 10:00a   15.4   15.7   14.9    69    9.8   0.0   ---  0.00   0.0   ---   15.4   15.1   15.1   18.3  1033.3  0.00   0.0   304    13.07    462     1.2  0.26   1.5   0.060   0.000   27.7    33    0.13   703    1    100.0   30 
 3/03/21 10:30a   16.2   16.2   15.2    61    8.6   0.0   ---  0.00   0.0   ---   16.2   15.6   15.6   18.8  1033.4  0.00   0.0   324    13.93    824     1.5  0.32   2.3   0.045   0.000   28.2    33    0.00   702    1    100.0   30 
 3/03/21 11:00a   16.8   16.9   16.2    58    8.5   0.0   ---  0.00   0.0   ---   16.8   16.1   16.1   19.3  1033.5  0.00   0.0   342    14.71    592     1.8  0.39   2.6   0.032   0.000   28.4    32    0.20   702    1    100.0   30 
 3/03/21 11:30a   16.7   16.8   16.3    57    8.1   0.0   ---  0.00   0.0   ---   16.7   15.9   15.9   18.0  1033.3  0.00   0.0   248    10.67    406     1.4  0.30   2.4   0.035   0.000   28.3    32    0.00   700    1    100.0   30 
 3/03/21 12:00p   16.7   16.8   16.7    57    8.2   0.0   ---  0.00   0.0   ---   16.7   15.9   15.9   18.3  1033.4  0.00   0.0   272    11.70    396     1.8  0.39   2.4   0.034   0.000   28.6    33    0.15   702    1    100.0   30 
 3/03/21 12:30p   17.2   17.2   16.7    54    7.8   0.0   ---  0.00   0.0   ---   17.2   16.4   16.4   19.6  1033.2  0.00   0.0   343    14.75    410     2.4  0.51   2.8   0.023   0.000   27.6    31    0.00   699    1    100.0   30 
 3/03/21  1:00p   17.5   17.9   17.2    52    7.5   0.0   ---  0.00   0.0   ---   17.5   16.6   16.6   20.4  1032.8  0.00   0.0   412    17.72    589     3.1  0.66   4.9   0.017   0.000   28.1    31    0.20   699    1    100.0   30 
 3/03/21  1:30p   17.8   18.1   17.4    53    8.1   0.0   ---  0.00   0.0   ---   17.8   17.0   17.0   21.2  1032.6  0.00   0.0   452    19.44    754     3.4  0.73   4.6   0.010   0.000   28.8    31    0.00   702    1    100.0   30 
 3/03/21  2:00p   18.2   18.2   17.8    55    9.0   0.0   ---  0.00   0.0   ---   18.2   17.6   17.6   22.1  1032.7  0.00   0.0   477    20.51    740     3.8  0.81   5.3   0.002   0.000   29.1    31    0.28   701    1    100.0   30 
 3/03/21  2:30p   18.1   18.8   18.1    54    8.7   0.0   ---  0.00   0.0   ---   18.1   17.4   17.4   22.4  1032.6  0.00   0.0   538    23.14    828     4.2  0.90   7.4   0.005   0.000   28.9    31    0.00   701    1    100.0   30 
 3/03/21  3:00p   17.6   18.1   17.6    56    8.7   0.0   ---  0.00   0.0   ---   17.6   16.8   16.8   20.8  1032.4  0.00   0.0   407    17.50    462     3.1  0.66   4.5   0.016   0.000   29.4    31    0.30   700    1    100.0   30 
 3/03/21  3:30p   17.1   17.6   17.1    57    8.5   0.0   ---  0.00   0.0   ---   17.1   16.4   16.4   19.3  1031.9  0.00   0.0   298    12.82    448     2.9  0.62   4.8   0.025   0.000   29.7    31    0.00   701    1    100.0   30 
 3/03/21  4:00p   17.3   17.4   17.1    55    8.2   0.0   ---  0.00   0.0   ---   17.3   16.6   16.6   19.3  1032.0  0.00   0.0   271    11.65    323     1.7  0.36   2.4   0.021   0.000   30.3    31    0.18   678    1     99.1   30 
 3/03/21  4:30p   16.8   17.3   16.8    62    9.5   0.0   ---  0.00   0.0   ---   16.8   16.2   16.2   18.9  1032.1  0.00   0.0   248    10.67    309     1.5  0.32   1.8   0.032   0.000   29.8    30    0.00   700    1    100.0   30 
 3/03/21  5:00p   17.6   17.6   16.5    55    8.4   0.0   ---  0.00   0.0   ---   17.6   16.8   16.8   22.0  1031.8  0.00   0.0   426    18.32    671     2.0  0.43   2.6   0.016   0.000   29.9    30    0.18   700    1    100.0   30 
 3/03/21  5:30p   18.1   18.1   17.6    54    8.6   0.0   ---  0.00   0.0   ---   18.1   17.3   17.3   23.6  1031.7  0.00   0.0   493    21.20    543     1.6  0.34   2.0   0.006   0.000   30.1    30    0.00   700    1    100.0   30 
 3/03/21  6:00p   17.6   18.1   17.2    58    9.2   0.0   ---  0.00   0.0   ---   17.6   16.9   16.9   22.6  1031.6  0.00   0.0   380    16.34    585     0.9  0.19   1.2   0.016   0.000   30.1    30    0.25   703    1    100.0   30 
 3/03/21  6:30p   17.6   17.8   17.5    59    9.4   0.0   ---  0.00   0.0   ---   17.6   16.9   16.9   23.9  1031.9  0.00   0.0   381    16.39    446     0.4  0.09   0.8   0.016   0.000   30.1    30    0.00   701    1    100.0   30 
 3/03/21  7:00p   16.9   17.6   16.9    59    8.9   0.0   ---  0.00   0.0   ---   16.9   16.3   16.3   16.3  1031.8  0.00   0.0   161     6.92    276     0.0  0.00   0.0   0.029   0.000   29.9    29    0.15   700    1    100.0   30 
 3/03/21  7:30p   16.0   16.9   16.0    60    8.2   0.0   ---  0.00   0.0   ---   16.0   15.3   15.3   13.9  1031.9  0.00   0.0    38     1.63     91     0.0  0.00   0.0   0.049   0.000   29.8    29    0.00   700    1    100.0   30 
 3/03/21  8:00p   15.3   15.9   15.3    60    7.6   0.0   ---  0.00   0.0   ---   15.3   14.6   14.6   12.8  1032.0  0.00   0.0     7     0.30     16     0.0  0.00   0.0   0.063   0.000   29.6    29    0.03   702    1    100.0   30 
 3/03/21  8:30p   14.9   15.4   14.9    64    8.1   0.0   ---  0.00   0.0   ---   14.9   14.3   14.3   12.4  1032.2  0.00   0.0     0     0.00      0     0.0  0.00   0.0   0.072   0.000   29.5    29    0.00   699    1    100.0   30 
 3/03/21  9:00p   14.4   14.9   14.4    68    8.6   0.0   ---  0.00   0.0   ---   14.4   13.9   13.9   12.1  1032.6  0.00   0.0     0     0.00      0     0.0  0.00   0.0   0.081   0.000   29.3    29    0.00   699    1    100.0   30 
 3/03/21  9:30p   13.9   14.4   13.9    72    9.0   0.0   ---  0.00   0.0   ---   13.9   13.6   13.6   11.7  1032.7  0.00   0.0     0     0.00      0     0.0  0.00   0.0   0.091   0.000   29.2    29    0.00   703    1    100.0   30 
 3/03/21 10:00p   14.2   14.2   13.9    73    9.4   0.0   ---  0.00   0.0   ---   14.2   13.8   13.8   12.0  1032.5  0.00   0.0     0     0.00      0     0.0  0.00   0.0   0.087   0.000   29.1    29    0.03   701    1    100.0   30 
 3/03/21 10:30p   14.2   14.2   14.1    72    9.2   0.0   ---  0.00   0.0   ---   14.2   13.8   13.8   11.9  1032.5  0.00   0.0     0     0.00      0     0.0  0.00   0.0   0.087   0.000   29.1    30    0.00   699    1    100.0   30 
 3/03/21 11:00p   14.2   14.3   14.2    72    9.2   0.0   ---  0.00   0.0   ---   14.2   13.8   13.8   12.0  1032.4  0.00   0.0     0     0.00      0     0.0  0.00   0.0   0.086   0.000   28.9    30    0.00   699    1    100.0   30 
 3/03/21 11:30p   14.1   14.2   14.1    72    9.1   0.0   ---  0.00   0.0   ---   14.1   13.7   13.7   11.8  1032.2  0.00   0.0     0     0.00      0     0.0  0.00   0.0   0.089   0.000   28.9    30    0.03   700    1    100.0   30 
 4/03/21 12:00a   13.7   14.1   13.7    73    8.9   0.0   ---  0.00   0.0   ---   13.7   13.3   13.3   11.5  1032.2  0.00   0.0     0     0.00      0     0.0  0.00   0.0   0.097   0.000   28.8    30    0.03   701    1    100.0   30 
 4/03/21 12:30a   13.5   13.7   13.5    75    9.2   0.0   ---  0.00   0.0   ---   13.5   13.2   13.2   11.3  1032.0  0.00   0.0     0     0.00      0     0.0  0.00   0.0   0.101   0.000   28.7    30    0.00   698    1    100.0   30 
 4/03/21  1:00a   13.4   13.6   13.4    79    9.9   0.0   ---  0.00   0.0   ---   13.4   13.2   13.2   11.4  1031.9  0.00   0.0     0     0.00      0     0.0  0.00   0.0   0.102   0.000   28.6    30    0.03   700    1    100.0   30 
 4/03/21  1:30a   13.2   13.4   13.2    82   10.2   0.0   ---  0.00   0.0   ---   13.2   13.1   13.1   11.3  1031.7  0.00   0.0     0     0.00      0     0.0  0.00   0.0   0.108   0.000   28.6    30    0.00   701    1    100.0   30 
 4/03/21  2:00a   13.2   13.2   13.1    82   10.2   0.0   ---  0.00   0.0   ---   13.2   13.1   13.1   11.3  1031.5  0.00   0.0     0     0.00      0     0.0  0.00   0.0   0.108   0.000   28.5    30    0.03   703    1    100.0   30 
 4/03/21  2:30a   13.3   13.3   13.2    81   10.1   0.0   ---  0.00   0.0   ---   13.3   13.1   13.1   11.3  1031.1  0.00   0.0     0     0.00      0     0.0  0.00   0.0   0.105   0.000   28.4    31    0.00   702    1    100.0   30 
 4/03/21  3:00a   13.2   13.3   13.2    79    9.7   0.0   ---  0.00   0.0   ---   13.2   13.0   13.0   11.2  1030.8  0.00   0.0     0     0.00      0     0.0  0.00   0.0   0.106   0.000   28.4    31    0.03   700    1    100.0   30 
 4/03/21  3:30a   13.3   13.3   13.2    78    9.5   0.0   ---  0.00   0.0   ---   13.3   13.1   13.1   11.3  1030.5  0.00   0.0     0     0.00      0     0.0  0.00   0.0   0.105   0.000   28.3    31    0.00   702    1    100.0   30 
 4/03/21  4:00a   13.4   13.4   13.3    78    9.6   0.0   ---  0.00   0.0   ---   13.4   13.2   13.2   11.4  1030.0  0.00   0.0     0     0.00      0     0.0  0.00   0.0   0.103   0.000   28.3    31    0.03   701    1    100.0   30 
 4/03/21  4:30a   13.4   13.4   13.3    77    9.4   0.0   ---  0.00   0.0   ---   13.4   13.1   13.1   11.3  1030.1  0.00   0.0     0     0.00      0     0.0  0.00   0.0   0.103   0.000   28.2    31    0.00   700    1    100.0   30 
 4/03/21  5:00a   13.3   13.3   13.3    78    9.5   0.0   ---  0.00   0.0   ---   13.3   13.1   13.1   11.3  1029.7  0.00   0.0     0     0.00      0     0.0  0.00   0.0   0.105   0.000   28.2    31    0.03   702    1    100.0   30 
 4/03/21  5:30a   13.4   13.4   13.3    76    9.2   0.0   ---  0.00   0.0   ---   13.4   13.1   13.1   11.3  1029.7  0.00   0.0     0     0.00      0     0.0  0.00   0.0   0.103   0.000   28.1    31    0.00   701    1    100.0   30 
 4/03/21  6:00a   13.5   13.5   13.4    75    9.2   0.0   ---  0.00   0.0   ---   13.5   13.2   13.2   11.3  1029.7  0.00   0.0     0     0.00      0     0.0  0.00   0.0   0.101   0.000   28.1    31    0.03   700    1    100.0   30 
 4/03/21  6:30a   13.6   13.6   13.5    74    9.1   0.0   ---  0.00   0.0   ---   13.6   13.3   13.3   11.4  1029.7  0.00   0.0     0     0.00      0     0.0  0.00   0.0   0.098   0.000   28.1    31    0.00   702    1    100.0   30 
 4/03/21  7:00a   13.9   13.9   13.6    71    8.7   0.0   ---  0.00   0.0   ---   13.9   13.5   13.5   11.7  1029.9  0.00   0.0     0     0.00      0     0.0  0.00   0.0   0.093   0.000   27.9    32    0.00   702    1    100.0   30 
 4/03/21  7:30a   14.2   14.2   13.9    70    8.8   0.0   ---  0.00   0.0   ---   14.2   13.7   13.7   12.6  1029.9  0.00   0.0     5     0.22     14     0.0  0.00   0.0   0.087   0.000   27.9    32    0.00   701    1    100.0   30 
 4/03/21  8:00a   14.3   14.3   14.2    69    8.7   0.0   ---  0.00   0.0   ---   14.3   13.9   13.9   13.3  1030.1  0.00   0.0    27     1.16     37     0.0  0.00   0.0   0.083   0.000   27.9    32    0.03   699    1    100.0   30 
 4/03/21  8:30a   14.6   14.6   14.3    69    8.9   0.0   ---  0.00   0.0   ---   14.6   14.1   14.1   13.8  1030.1  0.00   0.0    43     1.85     54     0.0  0.00   0.0   0.079   0.000   28.1    32    0.00   700    1    100.0   30 
 4/03/21  9:00a   15.1   15.1   14.6    69    9.4   0.0   ---  0.00   0.0   ---   15.1   14.6   14.6   14.9  1030.1  0.00   0.0    79     3.40    104     0.0  0.00   0.0   0.068   0.000   28.1    32    0.03   702    1    100.0   30 
 4/03/21  9:30a   15.4   15.4   15.1    68    9.6   0.0   ---  0.00   0.0   ---   15.4   15.1   15.1   16.1  1030.3  0.00   0.0   131     5.63    160     0.1  0.02   0.6   0.060   0.000   27.7    33    0.00   698    1    100.0   30 
 4/03/21 10:00a   15.7   15.7   15.4    68    9.8   0.0   ---  0.00   0.0   ---   15.7   15.3   15.3   16.9  1030.6  0.00   0.0   181     7.78    204     0.7  0.15   0.9   0.056   0.000   27.7    34    0.08   700    1    100.0   30 
 4/03/21 10:30a   15.8   15.8   15.7    68    9.9   0.0   ---  0.00   0.0   ---   15.8   15.4   15.4   16.8  1030.8  0.00   0.0   175     7.53    193     0.8  0.17   0.9   0.053   0.000   27.9    34    0.00   701    1    100.0   30 
 4/03/21 11:00a   15.7   15.8   15.7    68    9.8   0.0   ---  0.00   0.0   ---   15.7   15.3   15.3   16.7  1030.6  0.00   0.0   179     7.70    197     1.0  0.21   1.2   0.054   0.000   28.2    34    0.10   700    1    100.0   30 
 4/03/21 11:30a   16.2   16.2   15.7    67   10.1   0.0   ---  0.00   0.0   ---   16.2   15.8   15.8   17.6  1030.7  0.00   0.0   212     9.12    237     1.3  0.28   1.5   0.044   0.000   28.4    34    0.00   703    1    100.0   30 
 4/03/21 12:00p   16.5   16.5   16.2    68   10.6   0.0   ---  0.00   0.0   ---   16.5   16.2   16.2   18.2  1030.3  0.00   0.0   234    10.06    357     1.6  0.34   2.5   0.038   0.000   28.7    35    0.13   702    1    100.0   30 
 4/03/21 12:30p   17.2   17.2   16.5    66   10.8   0.0   ---  0.00   0.0   ---   17.2   16.8   16.8   20.1  1030.1  0.00   0.0   335    14.41    373     2.4  0.51   2.7   0.024   0.000   28.8    34    0.00   701    1    100.0   30 
 4/03/21  1:00p   17.3   17.4   17.2    66   10.9   0.0   ---  0.00   0.0   ---   17.3   17.0   17.0   19.5  1029.6  0.00   0.0   274    11.78    338     2.1  0.45   2.5   0.022   0.000   29.3    34    0.18   699    1    100.0   30 
 4/03/21  1:30p   17.9   17.9   17.3    66   11.4   0.0   ---  0.00   0.0   ---   17.9   17.7   17.7   20.0  1029.2  0.00   0.0   262    11.27    338     2.0  0.43   2.7   0.009   0.000   30.1    35    0.00   699    1    100.0   30 
 4/03/21  2:00p   18.9   18.9   17.9    63   11.7   0.0   ---  0.00   0.0   ---   18.9   18.7   18.7   22.2  1028.9  0.00   0.0   361    15.53    429     3.0  0.64   3.7   0.000   0.012   30.3    35    0.18   700    1    100.0   30 
 4/03/21  2:30p   19.6   19.6   18.9    61   11.8   0.0   ---  0.00   0.0   ---   19.6   19.3   19.3   23.4  1028.3  0.00   0.0   417    17.93    487     3.4  0.73   6.4   0.000   0.025   30.3    34    0.00   700    1    100.0   30 
 4/03/21  3:00p   19.4   19.6   19.3    62   12.0   0.0   ---  0.00   0.0   ---   19.4   19.3   19.3   22.7  1028.0  0.00   0.0   343    14.75    418     2.5  0.54   3.9   0.000   0.023   29.8    35    0.00   703    1    100.0   30 
 4/03/21  3:30p   19.8   19.8   19.4    63   12.5   0.0   ---  0.00   0.0   ---   19.8   19.7   19.7   22.8  1027.7  0.00   0.0   296    12.73    367     2.1  0.45   2.6   0.000   0.030   29.8    37    0.23   701    1    100.0   30 
 4/03/21  4:00p   19.8   19.8   19.7    63   12.6   0.0   ---  0.00   0.0   ---   19.8   19.8   19.8   22.9  1027.1  0.00   0.0   284    12.21    373     1.8  0.39   2.5   0.000   0.031   29.7    37    0.18   701    1    100.0   30 
 4/03/21  4:30p   20.4   20.4   19.8    62   12.9   0.0   ---  0.00   0.0   ---   20.4   20.2   20.2   23.6  1026.7  0.00   0.0   279    12.00    366     1.6  0.34   1.9   0.000   0.043   29.7    36    0.00   701    1    100.0   30 
 4/03/21  5:00p   20.3   20.4   20.3    63   13.0   0.0   ---  0.00   0.0   ---   20.3   20.2   20.2   22.4  1026.3  0.00   0.0   188     8.09    236     1.0  0.21   1.4   0.000   0.041   29.8    36    0.15   702    1    100.0   30 
 4/03/21  5:30p   20.2   20.3   20.2    64   13.2   0.0   ---  0.00   0.0   ---   20.2   20.2   20.2   21.7  1026.0  0.00   0.0   127     5.46    174     0.4  0.09   0.7   0.000   0.039   30.5    36    0.00   701    1    100.0   30 
 4/03/21  6:00p   20.5   20.7   20.2    63   13.2   0.0   ---  0.00   0.0   ---   20.5   20.3   20.3   22.8  1025.8  0.00   0.0   164     7.05    264     0.5  0.11   0.7   0.000   0.045   30.8    35    0.10   702    1    100.0   30 
 4/03/21  6:30p   20.4   20.6   20.4    64   13.3   0.0   ---  0.00   0.0   ---   20.4   20.3   20.3   22.7  1026.0  0.00   0.0   149     6.41    220     0.2  0.04   0.6   0.000   0.043   31.1    35    0.00   702    1    100.0   30 
 4/03/21  7:00p   19.8   20.3   19.8    68   13.7   0.0   ---  0.00   0.0   ---   19.8   20.0   20.0   19.3  1026.0  0.00   0.0    65     2.80     91     0.0  0.00   0.0   0.000   0.030   31.1    35    0.00   702    1    100.0   30 
 4/03/21  7:30p   19.6   19.8   19.6    69   13.8   0.0   ---  0.00   0.0   ---   19.6   19.8   19.8   18.8  1025.9  0.00   0.0    34     1.46     56     0.0  0.00   0.0   0.000   0.027   31.1    35    0.08   701    1    100.0   30 
 4/03/21  8:00p   19.3   19.6   19.3    70   13.7   0.0   ---  0.00   0.0   ---   19.3   19.6   19.6   18.1  1026.0  0.00   0.0     2     0.09     11     0.0  0.00   0.0   0.000   0.021   31.1    34    0.03   677    1     99.0   30 
 4/03/21  8:30p   18.9   19.3   18.9    71   13.5   0.0   ---  0.00   0.0   ---   18.9   19.1   19.1   17.6  1026.2  0.00   0.0     0     0.00      0     0.0  0.00   0.0   0.000   0.012   30.9    34    0.00   702    1    100.0   30 
 4/03/21  9:00p   18.3   18.9   18.3    73   13.4   0.0   ---  0.00   0.0   ---   18.3   18.4   18.4   16.9  1026.8  0.00   0.0     0     0.00      0     0.0  0.00   0.0   0.000   0.000   30.8    34    0.03   699    1    100.0   30 
 4/03/21  9:30p   17.9   18.3   17.9    75   13.4   0.0   ---  0.00   0.0   ---   17.9   17.9   17.9   16.4  1027.1  0.00   0.0     0     0.00      0     0.0  0.00   0.0   0.009   0.000   30.8    34    0.00   700    1    100.0   30 
 4/03/21 10:00p   17.7   17.9   17.7    76   13.4   0.0   ---  0.00   0.0   ---   17.7   17.7   17.7   16.2  1027.0  0.00   0.0     0     0.00      0     0.0  0.00   0.0   0.014   0.000   30.7    34    0.03   703    1    100.0   30 
 4/03/21 10:30p   17.5   17.7   17.5    77   13.4   0.0   ---  0.00   0.0   ---   17.5   17.6   17.6   16.1  1026.8  0.00   0.0     0     0.00      0     0.0  0.00   0.0   0.017   0.000   30.7    34    0.00   699    1    100.0   30 
 4/03/21 11:00p   17.3   17.5   17.3    79   13.6   0.0   ---  0.00   0.0   ---   17.3   17.4   17.4   15.9  1026.7  0.00   0.0     0     0.00      0     0.0  0.00   0.0   0.022   0.000   30.6    34    0.03   701    1    100.0   30 
 4/03/21 11:30p   16.9   17.3   16.9    82   13.8   0.0   ---  0.00   0.0   ---   16.9   17.1   17.1   15.6  1026.5  0.00   0.0     0     0.00      0     0.0  0.00   0.0   0.029   0.000   30.5    34    0.00   699    1    100.0   30 
 5/03/21 12:00a   16.7   16.9   16.7    84   13.9   0.0   ---  0.00   0.0   ---   16.7   16.8   16.8   15.4  1026.5  0.00   0.0     0     0.00      0     0.0  0.00   0.0   0.035   0.000   30.4    35    0.03   703    1    100.0   30 
 5/03/21 12:30a   15.8   16.7   15.8    90   14.2   0.0   ---  0.00   0.0   ---   15.8   16.1   16.1   14.6  1026.5  0.51   1.3     0     0.00      0     0.0  0.00   0.0   0.052   0.000   30.4    35    0.00   701    1    100.0   30 
 5/03/21  1:00a   15.6   15.8   15.6    92   14.3   0.0   ---  0.00   0.0   ---   15.6   15.7   15.7   14.3  1026.4  0.00   0.0     0     0.00      0     0.0  0.00   0.0   0.058   0.000   30.3    35    0.00   701    1    100.0   30 
 5/03/21  1:30a   15.1   15.6   15.1    91   13.6   0.0   ---  0.00   0.0   ---   15.1   15.2   15.2   13.7  1026.5  0.00   0.0     0     0.00      0     0.0  0.00   0.0   0.068   0.000   30.2    35    0.00   680    1     99.4   30 
 5/03/21  2:00a   14.9   15.1   14.8    87   12.7   0.0   ---  0.00   0.0   ---   14.9   14.9   14.9   13.4  1026.5  0.00   0.0     0     0.00      0     0.0  0.00   0.0   0.072   0.000   30.1    35    0.00   702    1    100.0   30 
 5/03/21  2:30a   15.0   15.1   14.9    85   12.5   0.0   ---  0.00   0.0   ---   15.0   15.0   15.0   13.4  1026.5  0.25   0.0     0     0.00      0     0.0  0.00   0.0   0.069   0.000   29.9    35    0.00   701    1    100.0   30 
 5/03/21  3:00a   14.7   15.1   14.7    87   12.6   0.0   ---  0.00   0.0   ---   14.7   14.7   14.7   13.2  1026.5  0.00   0.0     0     0.00      0     0.0  0.00   0.0   0.075   0.000   29.8    35    0.00   701    1    100.0   30 
 5/03/21  3:30a   14.7   14.8   14.7    82   11.7   0.0   ---  0.00   0.0   ---   14.7   14.7   14.7   13.1  1026.5  0.00   0.0     0     0.00      0     0.0  0.00   0.0   0.075   0.000   29.7    35    0.00   701    1    100.0   30 
 5/03/21  4:00a   14.4   14.7   14.4    79   10.8   0.0   ---  0.00   0.0   ---   14.4   14.3   14.3   12.7  1026.3  0.00   0.0     0     0.00      0     0.0  0.00   0.0   0.081   0.000   29.6    35    0.03   702    1    100.0   30 
 5/03/21  4:30a   14.6   14.6   14.3    76   10.4   0.0   ---  0.00   0.0   ---   14.6   14.3   14.3   12.7  1026.3  0.00   0.0     0     0.00      0     0.0  0.00   0.0   0.079   0.000   29.5    35    0.00   673    1     98.4   30 
 5/03/21  5:00a   14.7   14.7   14.6    75   10.3   0.0   ---  0.00   0.0   ---   14.7   14.4   14.4   12.7  1026.2  0.00   0.0     0     0.00      0     0.0  0.00   0.0   0.076   0.000   29.4    35    0.03   702    1    100.0   30 
 5/03/21  5:30a   14.2   14.7   14.2    81   11.0   0.0   ---  0.00   0.0   ---   14.2   14.1   14.1   12.4  1026.4  0.00   0.0     0     0.00      0     0.0  0.00   0.0   0.087   0.000   29.3    35    0.00   700    1    100.0   30 
 5/03/21  6:00a   13.7   14.2   13.7    84   11.0   0.0   ---  0.00   0.0   ---   13.7   13.6   13.6   12.0  1026.5  0.00   0.0     0     0.00      0     0.0  0.00   0.0   0.097   0.000   29.2    35    0.03   700    1    100.0   30 
 5/03/21  6:30a   13.4   13.7   13.4    86   11.1   0.0   ---  0.00   0.0   ---   13.4   13.4   13.4   11.8  1026.8  0.00   0.0     0     0.00      0     0.0  0.00   0.0   0.102   0.000   29.1    35    0.00   702    1    100.0   30 
 5/03/21  7:00a   13.3   13.4   13.3    83   10.5   0.0   ---  0.00   0.0   ---   13.3   13.2   13.2   11.6  1027.0  0.00   0.0     0     0.00      0     0.0  0.00   0.0   0.104   0.000   28.9    35    0.00   702    1    100.0   30 
 5/03/21  7:30a   13.9   13.9   13.3    72    8.9   0.0   ---  0.00   0.0   ---   13.9   13.5   13.5   12.4  1027.3  0.00   0.0     5     0.22     12     0.0  0.00   0.0   0.093   0.000   28.9    35    0.00   676    1     98.8   30 
 5/03/21  8:00a   13.9   13.9   13.9    73    9.2   0.0   ---  0.00   0.0   ---   13.9   13.6   13.6   12.9  1027.8  0.00   0.0    19     0.82     28     0.0  0.00   0.0   0.091   0.000   28.8    35    0.00   701    1    100.0   30 
 5/03/21  8:30a   14.4   14.4   13.9    71    9.2   0.0   ---  0.00   0.0   ---   14.4   14.1   14.1   13.9  1027.8  0.00   0.0    51     2.19     97     0.0  0.00   0.0   0.081   0.000   28.8    35    0.00   701    1    100.0   30 
 5/03/21  9:00a   15.2   15.2   14.4    64    8.5   0.0   ---  0.00   0.0   ---   15.2   14.7   14.7   15.4  1027.9  0.00   0.0   107     4.60    130     0.0  0.00   0.0   0.065   0.000   29.1    36    0.05   652    1     95.3   30 
 5/03/21  9:30a   15.6   15.6   15.2    65    9.0   0.0   ---  0.00   0.0   ---   15.6   15.1   15.1   16.0  1027.9  0.00   0.0   126     5.42    162     0.1  0.02   0.5   0.058   0.000   29.3    36    0.00   700    1    100.0   30 
 5/03/21 10:00a   15.2   15.7   15.1    70    9.8   0.0   ---  0.00   0.0   ---   15.2   14.8   14.8   15.8  1028.3  0.00   0.0   135     5.81    248     0.2  0.04   0.9   0.065   0.000   29.4    35    0.08   699    1    100.0   30 
 5/03/21 10:30a   15.5   15.5   15.2    66    9.2   0.0   ---  0.00   0.0   ---   15.5   15.1   15.1   17.1  1028.5  0.00   0.0   220     9.46    262     0.9  0.19   1.1   0.059   0.000   28.7    34    0.00   702    1    100.0   30 
 5/03/21 11:00a   15.9   15.9   15.5    62    8.7   0.0   ---  0.00   0.0   ---   15.9   15.3   15.3   17.4  1028.6  0.00   0.0   235    10.11    260     1.2  0.26   1.4   0.050   0.000   28.6    33    0.13   702    1    100.0   30 
 5/03/21 11:30a   16.5   16.5   15.9    61    8.9   0.0   ---  0.00   0.0   ---   16.5   15.9   15.9   18.8  1028.4  0.00   0.0   312    13.42    362     1.8  0.39   2.2   0.038   0.000   29.1    33    0.00   703    1    100.0   30 
 5/03/21 12:00p   16.4   16.7   16.4    59    8.4   0.0   ---  0.00   0.0   ---   16.4   15.7   15.7   18.9  1028.6  0.00   0.0   342    14.71    420     2.2  0.47   2.8   0.039   0.000   27.2    31    0.18   701    1    100.0   30 
 5/03/21 12:30p   17.1   17.2   16.4    58    8.8   0.0   ---  0.00   0.0   ---   17.1   16.4   16.4   20.9  1028.4  0.00   0.0   470    20.21    536     3.1  0.66   3.7   0.025   0.000   25.7    32    0.00   699    1    100.0   30 
 5/03/21  1:00p   17.3   17.4   17.1    57    8.7   0.0   ---  0.00   0.0   ---   17.3   16.6   16.6   20.6  1028.3  0.00   0.0   425    18.28    485     3.1  0.66   3.4   0.022   0.000   26.5    33    0.25   700    1    100.0   30 
 5/03/21  1:30p   17.6   17.6   17.3    57    9.0   0.0   ---  0.00   0.0   ---   17.6   16.9   16.9   21.2  1028.2  0.00   0.0   445    19.14    545     3.3  0.71   4.5   0.015   0.000   27.8    34    0.00   701    1    100.0   30 
 5/03/21  2:00p   17.2   17.7   17.2    60    9.4   0.0   ---  0.00   0.0   ---   17.2   16.6   16.6   20.4  1028.3  0.00   0.0   401    17.25    547     2.9  0.62   4.0   0.023   0.000   27.2    33    0.23   701    1    100.0   30 
 5/03/21  2:30p   17.4   17.4   17.0    60    9.6   0.0   ---  0.00   0.0   ---   17.4   16.9   16.9   20.5  1028.3  0.00   0.0   377    16.21    635     2.9  0.62   6.3   0.019   0.000   26.1    33    0.00   697    1    100.0   30 
 5/03/21  3:00p   17.8   17.9   17.4    56    8.9   0.0   ---  0.00   0.0   ---   17.8   17.1   17.1   21.6  1027.9  0.00   0.0   462    19.87    605     3.0  0.64   4.0   0.012   0.000   27.1    34    0.25   701    1    100.0   30 
 5/03/21  3:30p   17.7   17.9   17.6    57    9.1   0.0   ---  0.00   0.0   ---   17.7   17.1   17.1   21.1  1027.7  0.00   0.0   400    17.20    497     2.9  0.62   4.5   0.013   0.000   28.4    33    0.00   702    1    100.0   30 
 5/03/21  4:00p   17.9   18.1   17.6    55    8.7   0.0   ---  0.00   0.0   ---   17.9   17.2   17.2   21.2  1027.6  0.00   0.0   381    16.39    548     2.9  0.62   4.6   0.009   0.000   29.2    33    0.28   696    1    100.0   30 
 5/03/21  4:30p   17.9   17.9   17.7    56    9.0   0.0   ---  0.00   0.0   ---   17.9   17.2   17.2   21.8  1027.5  0.00   0.0   404    17.37    524     2.0  0.43   2.7   0.009   0.000   29.7    32    0.00   697    1    100.0   30 
 5/03/21  5:00p   17.6   17.9   17.3    55    8.5   0.0   ---  0.00   0.0   ---   17.6   16.9   16.9   21.0  1027.4  0.00   0.0   325    13.98    515     1.6  0.34   2.2   0.015   0.000   29.9    32    0.23   678    1     99.1   30 
 5/03/21  5:30p   17.4   17.9   17.3    57    8.8   0.0   ---  0.00   0.0   ---   17.4   16.8   16.8   21.2  1027.6  0.00   0.0   323    13.89    647     1.2  0.26   2.0   0.019   0.000   30.3    31    0.00   702    1    100.0   30 
 5/03/21  6:00p   16.7   17.4   16.7    61    9.2   0.0   ---  0.00   0.0   ---   16.7   16.1   16.1   18.5  1027.7  0.00   0.0   166     7.14    274     0.4  0.09   0.8   0.034   0.000   30.4    31    0.15   700    1    100.0   30 
 5/03/21  6:30p   16.2   16.8   16.2    62    8.9   0.0   ---  0.00   0.0   ---   16.2   15.6   15.6   16.7  1028.0  0.00   0.0    90     3.87    139     0.0  0.00   0.0   0.045   0.000   30.4    31    0.00   701    1    100.0   30 
 5/03/21  7:00p   16.1   16.2   16.0    59    8.0   0.0   ---  0.00   0.0   ---   16.1   15.3   15.3   14.5  1028.0  0.00   0.0    61     2.62     72     0.0  0.00   0.0   0.047   0.000   30.4    31    0.05   701    1    100.0   30 
 5/03/21  7:30p   15.8   16.1   15.8    62    8.6   0.0   ---  0.00   0.0   ---   15.8   15.2   15.2   14.0  1028.1  0.00   0.0    28     1.20     51     0.0  0.00   0.0   0.052   0.000   30.3    31    0.00   699    1    100.0   30 
 5/03/21  8:00p   15.6   15.8   15.6    61    8.1   0.0   ---  0.00   0.0   ---   15.6   14.9   14.9   13.4  1028.2  0.00   0.0     4     0.17     12     0.0  0.00   0.0   0.057   0.000   30.2    31    0.03   702    1    100.0   30 
 5/03/21  8:30p   15.5   15.7   15.4    61    8.0   0.0   ---  0.00   0.0   ---   15.5   14.8   14.8   13.2  1028.4  0.00   0.0     0     0.00      0     0.0  0.00   0.0   0.059   0.000   30.2    31    0.00   701    1    100.0   30 
 5/03/21  9:00p   15.4   15.5   15.3    62    8.1   0.0   ---  0.00   0.0   ---   15.4   14.7   14.7   13.1  1028.7  0.00   0.0     0     0.00      0     0.0  0.00   0.0   0.061   0.000   30.1    31    0.03   681    1     99.6   30 
 5/03/21  9:30p   15.3   15.4   15.3    63    8.3   0.0   ---  0.00   0.0   ---   15.3   14.7   14.7   13.1  1029.0  0.00   0.0     0     0.00      0     0.0  0.00   0.0   0.064   0.000   29.9    31    0.00   701    1    100.0   30 
 5/03/21 10:00p   15.1   15.3   15.1    64    8.3   0.0   ---  0.00   0.0   ---   15.1   14.4   14.4   12.8  1029.2  0.00   0.0     0     0.00      0     0.0  0.00   0.0   0.068   0.000   29.9    31    0.03   701    1    100.0   30 
 5/03/21 10:30p   14.9   15.1   14.9    64    8.2   0.0   ---  0.00   0.0   ---   14.9   14.3   14.3   12.7  1029.3  0.00   0.0     0     0.00      0     0.0  0.00   0.0   0.071   0.000   29.9    31    0.00   653    1     95.5   30 
 5/03/21 11:00p   14.8   14.9   14.8    65    8.3   0.0   ---  0.00   0.0   ---   14.8   14.3   14.3   12.7  1029.2  0.00   0.0     0     0.00      0     0.0  0.00   0.0   0.073   0.000   29.8    31    0.03   701    1    100.0   30 
 5/03/21 11:30p   14.7   14.8   14.7    65    8.2   0.0   ---  0.00   0.0   ---   14.7   14.2   14.2   12.6  1029.2  0.00   0.0     0     0.00      0     0.0  0.00   0.0   0.075   0.000   29.7    31    0.00   703    1    100.0   30 
 6/03/21 12:00a   14.6   14.7   14.6    66    8.3   0.0   ---  0.00   0.0   ---   14.6   14.1   14.1   12.4  1028.9  0.00   0.0     0     0.00      0     0.0  0.00   0.0   0.078   0.000   29.6    31    0.03   702    1    100.0   30 
 6/03/21 12:30a   14.3   14.6   14.3    65    7.8   0.0   ---  0.00   0.0   ---   14.3   13.8   13.8   12.2  1028.8  0.00   0.0     0     0.00      0     0.0  0.00   0.0   0.083   0.000   29.5    31    0.00   703    1    100.0   30 
 6/03/21  1:00a   14.3   14.3   14.3    66    8.0   0.0   ---  0.00   0.0   ---   14.3   13.7   13.7   12.1  1028.7  0.00   0.0     0     0.00      0     0.0  0.00   0.0   0.084   0.000   29.5    31    0.03   701    1    100.0   30 
 6/03/21  1:30a   14.2   14.3   14.2    65    7.7   0.0   ---  0.00   0.0   ---   14.2   13.6   13.6   12.0  1028.3  0.00   0.0     0     0.00      0     0.0  0.00   0.0   0.087   0.000   29.4    31    0.00   702    1    100.0   30 
 6/03/21  2:00a   14.1   14.2   14.1    66    7.8   0.0   ---  0.00   0.0   ---   14.1   13.5   13.5   11.9  1028.0  0.00   0.0     0     0.00      0     0.0  0.00   0.0   0.089   0.000   29.4    31    0.03   700    1    100.0   30 
 6/03/21  2:30a   14.0   14.1   14.0    66    7.7   0.0   ---  0.00   0.0   ---   14.0   13.4   13.4   11.8  1027.8  0.00   0.0     0     0.00      0     0.0  0.00   0.0   0.090   0.000   29.3    31    0.00   699    1    100.0   30 
 6/03/21  3:00a   13.9   14.0   13.9    68    8.1   0.0   ---  0.00   0.0   ---   13.9   13.4   13.4   11.8  1027.6  0.00   0.0     0     0.00      0     0.0  0.00   0.0   0.091   0.000   29.3    31    0.00   700    1    100.0   30 
 6/03/21  3:30a   13.9   14.0   13.9    69    8.3   0.0   ---  0.00   0.0   ---   13.9   13.5   13.5   11.9  1027.3  0.00   0.0     0     0.00      0     0.0  0.00   0.0   0.091   0.000   29.3    31    0.03   699    1    100.0   30 
 6/03/21  4:00a   13.9   13.9   13.9    69    8.3   0.0   ---  0.00   0.0   ---   13.9   13.5   13.5   11.9  1027.2  0.00   0.0     0     0.00      0     0.0  0.00   0.0   0.091   0.000   29.2    31    0.03   701    1    100.0   30 
 6/03/21  4:30a   14.0   14.0   13.9    68    8.2   0.0   ---  0.00   0.0   ---   14.0   13.5   13.5   11.9  1027.2  0.00   0.0     0     0.00      0     0.0  0.00   0.0   0.090   0.000   29.2    31    0.00   700    1    100.0   30 
 6/03/21  5:00a   13.9   14.0   13.9    70    8.6   0.0   ---  0.00   0.0   ---   13.9   13.5   13.5   11.9  1027.0  0.00   0.0     0     0.00      0     0.0  0.00   0.0   0.091   0.000   29.1    31    0.03   702    1    100.0   30 
 6/03/21  5:30a   13.7   13.9   13.7    68    7.9   0.0   ---  0.00   0.0   ---   13.7   13.2   13.2   11.6  1027.3  0.00   0.0     0     0.00      0     0.0  0.00   0.0   0.096   0.000   29.1    31    0.00   701    1    100.0   30 
 6/03/21  6:00a   13.7   13.7   13.6    68    7.9   0.0   ---  0.00   0.0   ---   13.7   13.2   13.2   11.6  1027.3  0.00   0.0     0     0.00      0     0.0  0.00   0.0   0.097   0.000   28.9    31    0.03   675    1     98.7   30 
 6/03/21  6:30a   13.6   13.7   13.6    69    8.0   0.0   ---  0.00   0.0   ---   13.6   13.2   13.2   11.6  1027.1  0.00   0.0     0     0.00      0     0.0  0.00   0.0   0.098   0.000   28.9    31    0.00   700    1    100.0   30 
 6/03/21  7:00a   13.6   13.7   13.6    69    8.0   0.0   ---  0.00   0.0   ---   13.6   13.2   13.2   11.6  1027.2  0.00   0.0     0     0.00      0     0.0  0.00   0.0   0.098   0.000   28.8    31    0.00   702    1    100.0   30 
 6/03/21  7:30a   13.7   13.7   13.6    69    8.1   0.0   ---  0.00   0.0   ---   13.7   13.2   13.2   12.2  1027.5  0.00   0.0     8     0.34     18     0.0  0.00   0.0   0.097   0.000   28.8    31    0.00   701    1    100.0   30 
 6/03/21  8:00a   13.8   13.8   13.7    69    8.2   0.0   ---  0.00   0.0   ---   13.8   13.4   13.4   13.1  1027.5  0.00   0.0    40     1.72     63     0.0  0.00   0.0   0.094   0.000   28.8    31    0.03   701    1    100.0   30 
 6/03/21  8:30a   14.2   14.2   13.8    67    8.1   0.0   ---  0.00   0.0   ---   14.2   13.7   13.7   14.6  1027.5  0.00   0.0   104     4.47    169     0.0  0.00   0.0   0.087   0.000   28.8    31    0.00   703    1    100.0   30 
 6/03/21  9:00a   14.6   14.6   14.2    66    8.3   0.0   ---  0.00   0.0   ---   14.6   14.0   14.0   15.9  1027.7  0.00   0.0   172     7.40    304     0.1  0.02   0.7   0.079   0.000   28.8    31    0.08   701    1    100.0   30 
 6/03/21  9:30a   15.5   15.5   14.6    64    8.7   0.0   ---  0.00   0.0   ---   15.5   14.9   14.9   19.4  1027.7  0.00   0.0   380    16.34    439     0.9  0.19   1.2   0.059   0.000   28.8    31    0.00   701    1    100.0   30 
 6/03/21 10:00a   16.6   16.6   15.5    61    9.0   0.0   ---  0.00   0.0   ---   16.6   15.9   15.9   21.1  1027.5  0.00   0.0   486    20.90    536     1.5  0.32   1.8   0.037   0.000   28.9    31    0.23   702    1    100.0   30 
 6/03/21 10:30a   16.7   16.7   16.6    60    8.9   0.0   ---  0.00   0.0   ---   16.7   16.1   16.1   21.6  1027.8  0.00   0.0   581    24.99    626     2.2  0.47   2.5   0.034   0.000   29.1    31    0.00   700    1    100.0   30 
 6/03/21 11:00a   17.9   18.0   16.7    57    9.3   0.0   ---  0.00   0.0   ---   17.9   17.3   17.3   23.2  1027.8  0.00   0.0   665    28.60    705     3.0  0.64   3.4   0.008   0.000   29.3    31    0.33   674    1     98.5   30 
 6/03/21 11:30a   18.4   18.5   17.8    55    9.2   0.0   ---  0.00   0.0   ---   18.4   17.7   17.7   23.7  1027.7  0.00   0.0   744    32.00    780     3.8  0.81   4.2   0.000   0.001   29.5    30    0.00   702    1    100.0   30 
 6/03/21 12:00p   19.1   19.1   18.4    52    9.0   0.0   ---  0.00   0.0   ---   19.1   18.3   18.3   24.4  1027.5  0.00   0.0   804    34.58    828     4.6  0.99   4.9   0.000   0.015   29.7    30    0.43   703    1    100.0   30 
 6/03/21 12:30p   20.2   20.2   19.1    47    8.5   0.0   ---  0.00   0.0   ---   20.2   19.3   19.3   25.2  1027.2  0.00   0.0   850    36.55    870     5.2  1.11   5.5   0.000   0.038   30.1    30    0.00   701    1    100.0   30 
 6/03/21  1:00p   20.9   20.9   20.2    47    9.2   0.0   ---  0.00   0.0   ---   20.9   19.8   19.8   25.7  1026.9  0.00   0.0   879    37.80    893     5.7  1.22   5.8   0.000   0.053   30.3    30    0.51   701    1    100.0   30 
 6/03/21  1:30p   21.4   21.5   20.9    45    9.0   0.0   ---  0.00   0.0   ---   21.4   20.3   20.3   25.9  1026.8  0.00   0.0   893    38.40    898     5.9  1.26   5.9   0.000   0.065   30.5    30    0.00   701    1    100.0   30 
 6/03/21  2:00p   20.9   21.8   20.9    52   10.7   0.0   ---  0.00   0.0   ---   20.9   20.1   20.1   25.4  1026.5  0.00   0.0   890    38.27    898     5.9  1.26   5.9   0.000   0.054   30.7    30    0.53   701    1    100.0   30 
 6/03/21  2:30p   20.6   20.9   20.5    55   11.2   0.0   ---  0.00   0.0   ---   20.6   20.0   20.0   25.4  1026.4  0.00   0.0   866    37.24    879     5.6  1.20   5.8   0.000   0.046   30.9    30    0.00   699    1    100.0   30 
 6/03/21  3:00p   21.3   21.3   20.5    53   11.4   0.0   ---  0.00   0.0   ---   21.3   20.6   20.6   26.2  1025.9  0.00   0.0   829    35.65    849     5.1  1.09   5.4   0.000   0.063   31.2    30    0.48   701    1    100.0   30 
 6/03/21  3:30p   22.6   22.6   21.3    51   11.9   0.0   ---  0.00   0.0   ---   22.6   22.2   22.2   28.1  1025.5  0.00   0.0   781    33.59    809     4.4  0.94   4.8   0.000   0.088   31.4    30    0.00   701    1    100.0   30 
 6/03/21  4:00p   22.0   22.6   22.0    51   11.4   0.0   ---  0.00   0.0   ---   22.0   21.4   21.4   27.4  1025.3  0.00   0.0   714    30.71    749     3.7  0.79   4.1   0.000   0.076   31.6    30    0.46   701    1    100.0   30 
 6/03/21  4:30p   21.9   22.1   21.7    54   12.2   0.0   ---  0.00   0.0   ---   21.9   21.4   21.4   27.5  1025.3  0.00   0.0   636    27.35    677     2.9  0.62   3.3   0.000   0.074   31.8    30    0.00   701    1    100.0   30 
 6/03/21  5:00p   20.3   21.9   20.3    61   12.6   0.0   ---  0.00   0.0   ---   20.3   20.1   20.1   26.2  1025.3  0.00   0.0   547    23.52    591     2.2  0.47   2.5   0.000   0.042   31.9    30    0.36   700    1    100.0   30 
 6/03/21  5:30p   19.9   20.3   19.9    62   12.4   0.0   ---  0.00   0.0   ---   19.9   19.9   19.9   25.8  1025.3  0.00   0.0   450    19.35    497     1.5  0.32   1.8   0.000   0.034   31.9    30    0.00   699    1    100.0   30 
 6/03/21  6:00p   20.0   20.0   19.7    63   12.7   0.0   ---  0.00   0.0   ---   20.0   20.0   20.0   25.3  1025.4  0.00   0.0   348    14.97    399     0.9  0.19   1.2   0.000   0.035   32.0    30    0.23   702    1    100.0   30 
 6/03/21  6:30p   19.5   20.0   19.4    66   13.0   0.0   ---  0.00   0.0   ---   19.5   19.6   19.6   23.6  1025.4  0.00   0.0   241    10.36    295     0.3  0.06   0.7   0.000   0.024   31.9    31    0.00   701    1    100.0   30 
 6/03/21  7:00p   19.2   19.6   19.2    67   12.9   0.0   ---  0.00   0.0   ---   19.2   19.2   19.2   19.1  1025.2  0.00   0.0   125     5.38    181     0.0  0.00   0.0   0.000   0.017   31.8    31    0.10   699    1    100.0   30 
 6/03/21  7:30p   18.4   19.2   18.4    69   12.7   0.0   ---  0.00   0.0   ---   18.4   18.4   18.4   17.1  1025.3  0.00   0.0    24     1.03     69     0.0  0.00   0.0   0.000   0.002   31.8    31    0.00   701    1    100.0   30 
 6/03/21  8:00p   17.9   18.4   17.9    70   12.3   0.0   ---  0.00   0.0   ---   17.9   17.8   17.8   16.2  1025.5  0.00   0.0     4     0.17     14     0.0  0.00   0.0   0.009   0.000   31.6    31    0.03   703    1    100.0   30 
 6/03/21  8:30p   17.3   17.9   17.3    73   12.4   0.0   ---  0.00   0.0   ---   17.3   17.2   17.2   15.5  1025.9  0.00   0.0     0     0.00      0     0.0  0.00   0.0   0.022   0.000   31.4    31    0.00   702    1    100.0   30 
 6/03/21  9:00p   16.8   17.3   16.8    75   12.4   0.0   ---  0.00   0.0   ---   16.8   16.7   16.7   15.1  1026.3  0.00   0.0     0     0.00      0     0.0  0.00   0.0   0.031   0.000   31.3    31    0.03   701    1    100.0   30 
 6/03/21  9:30p   16.2   16.8   16.2    77   12.2   0.0   ---  0.00   0.0   ---   16.2   16.1   16.1   14.4  1026.2  0.00   0.0     0     0.00      0     0.0  0.00   0.0   0.044   0.000   31.1    32    0.00   702    1    100.0   30 
 6/03/21 10:00p   15.7   16.2   15.7    79   12.0   0.0   ---  0.00   0.0   ---   15.7   15.6   15.6   13.9  1026.4  0.00   0.0     0     0.00      0     0.0  0.00   0.0   0.056   0.000   30.9    32    0.03   700    1    100.0   30 
 6/03/21 10:30p   15.1   15.7   15.1    81   11.9   0.0   ---  0.00   0.0   ---   15.1   15.1   15.1   13.4  1026.1  0.00   0.0     0     0.00      0     0.0  0.00   0.0   0.067   0.000   30.8    32    0.00   702    1    100.0   30 
 6/03/21 11:00p   14.2   15.1   14.2    83   11.3   0.0   ---  0.00   0.0   ---   14.2   14.1   14.1   12.3  1025.9  0.00   0.0     0     0.00      0     0.0  0.00   0.0   0.087   0.000   30.6    32    0.03   701    1    100.0   30 
 6/03/21 11:30p   13.3   14.2   13.3    85   10.9   0.0   ---  0.00   0.0   ---   13.3   13.3   13.3   11.6  1025.9  0.00   0.0     0     0.00      0     0.0  0.00   0.0   0.104   0.000   30.4    32    0.00   701    1    100.0   30 
 7/03/21 12:00a   12.7   13.3   12.7    87   10.6   0.0   ---  0.00   0.0   ---   12.7   12.7   12.7   11.0  1025.6  0.00   0.0     0     0.00      0     0.0  0.00   0.0   0.117   0.000   30.2    32    0.00   698    1    100.0   30 
 7/03/21 12:30a   12.2   12.7   12.2    89   10.4   0.0   ---  0.00   0.0   ---   12.2   12.2   12.2   10.4  1025.4  0.00   0.0     0     0.00      0     0.0  0.00   0.0   0.128   0.000   29.9    32    0.00   699    1    100.0   30 
 7/03/21  1:00a   12.2   12.2   12.1    90   10.6   0.0   ---  0.00   0.0   ---   12.2   12.2   12.2   10.5  1025.5  0.00   0.0     0     0.00      0     0.0  0.00   0.0   0.128   0.000   29.7    32    0.00   702    1    100.0   30 
 7/03/21  1:30a   11.9   12.2   11.9    90   10.3   0.0   ---  0.00   0.0   ---   11.9   11.9   11.9   10.2  1025.0  0.00   0.0     0     0.00      0     0.0  0.00   0.0   0.134   0.000   29.6    32    0.00   675    1     98.7   30 
 7/03/21  2:00a   11.6   11.8   11.6    91   10.1   0.0   ---  0.00   0.0   ---   11.6   11.7   11.7    9.9  1024.6  0.00   0.0     0     0.00      0     0.0  0.00   0.0   0.141   0.000   29.4    32    0.00   701    1    100.0   30 
 7/03/21  2:30a   11.2   11.6   11.1    91    9.8   0.0   ---  0.00   0.0   ---   11.2   11.3   11.3    9.5  1024.6  0.00   0.0     0     0.00      0     0.0  0.00   0.0   0.149   0.000   29.3    32    0.00   700    1    100.0   30 
 7/03/21  3:00a   10.8   11.2   10.8    91    9.4   0.0   ---  0.00   0.0   ---   10.8   10.9   10.9    9.1  1024.3  0.00   0.0     0     0.00      0     0.0  0.00   0.0   0.157   0.000   29.1    32    0.00   702    1    100.0   30 
 7/03/21  3:30a   10.6   10.8   10.6    92    9.3   0.0   ---  0.00   0.0   ---   10.6   10.7   10.7    8.9  1024.1  0.00   0.0     0     0.00      0     0.0  0.00   0.0   0.162   0.000   28.9    33    0.00   701    1    100.0   30 
 7/03/21  4:00a   10.5   10.6   10.5    93    9.4   0.0   ---  0.00   0.0   ---   10.5   10.7   10.7    8.8  1024.0  0.00   0.0     0     0.00      0     0.0  0.00   0.0   0.163   0.000   28.8    33    0.00   702    1    100.0   30 
 7/03/21  4:30a   10.4   10.5   10.4    93    9.3   0.0   ---  0.00   0.0   ---   10.4   10.6   10.6    8.8  1024.0  0.00   0.0     0     0.00      0     0.0  0.00   0.0   0.166   0.000   28.7    33    0.00   702    1    100.0   30 
 7/03/21  5:00a   10.2   10.4   10.2    93    9.1   0.0   ---  0.00   0.0   ---   10.2   10.4   10.4    8.6  1023.8  0.00   0.0     0     0.00      0     0.0  0.00   0.0   0.170   0.000   28.6    33    0.00   701    1    100.0   30 
 7/03/21  5:30a    9.8   10.2    9.8    93    8.7   0.0   ---  0.00   0.0   ---    9.8   10.0   10.0    8.2  1023.7  0.00   0.0     0     0.00      0     0.0  0.00   0.0   0.178   0.000   28.5    33    0.00   701    1    100.0   30 
 7/03/21  6:00a    9.2    9.8    9.2    93    8.1   0.0   ---  0.00   0.0   ---    9.2    9.4    9.4    7.5  1023.9  0.00   0.0     0     0.00      0     0.0  0.00   0.0   0.191   0.000   28.4    33    0.00   699    1    100.0   30 
 7/03/21  6:30a    8.8    9.2    8.8    93    7.7   0.0   ---  0.00   0.0   ---    8.8    8.9    8.9    7.1  1024.0  0.00   0.0     0     0.00      0     0.0  0.00   0.0   0.199   0.000   28.2    33    0.00   701    1    100.0   30 
 7/03/21  7:00a    8.4    8.8    8.4    93    7.4   0.0   ---  0.00   0.0   ---    8.4    8.6    8.6    6.7  1024.2  0.25   0.0     0     0.00      0     0.0  0.00   0.0   0.206   0.000   28.1    32    0.00   701    1    100.0   30 
 7/03/21  7:30a    8.2    8.4    8.2    94    7.3   0.0   ---  0.00   0.0   ---    8.2    8.4    8.4    7.5  1024.4  0.00   0.0    13     0.56     35     0.0  0.00   0.0   0.211   0.000   27.9    32    0.00   702    1    100.0   30 
 7/03/21  8:00a    9.5    9.5    8.2    96    8.9   0.0   ---  0.00   0.0   ---    9.5    9.8    9.8   10.7  1024.7  0.00   0.0    91     3.91    149     0.0  0.00   0.0   0.184   0.000   27.8    32    0.03   702    1    100.0   30 
 7/03/21  8:30a   10.8   10.8    9.5    95   10.0   0.0   ---  0.00   0.0   ---   10.8   11.0   11.0   13.0  1024.9  0.00   0.0   154     6.62    221     0.0  0.00   0.0   0.157   0.000   27.8    32    0.00   700    1    100.0   30 
 7/03/21  9:00a   11.7   11.7   10.8    95   10.9   0.0   ---  0.00   0.0   ---   11.7   11.9   11.9   13.8  1025.1  0.00   0.0   169     7.27    207     0.0  0.00   0.0   0.138   0.000   27.9    32    0.08   682    1     99.7   30 
 7/03/21  9:30a   13.8   13.8   11.7    92   12.5   0.0   ---  0.00   0.0   ---   13.8   13.8   13.8   17.7  1024.9  0.00   0.0   319    13.72    469     0.7  0.15   1.1   0.095   0.000   28.1    32    0.00   699    1    100.0   30 
 7/03/21 10:00a   15.7   15.7   13.8    86   13.4   0.0   ---  0.00   0.0   ---   15.7   15.8   15.8   20.0  1024.8  0.00   0.0   366    15.74    520     1.2  0.26   1.5   0.054   0.000   28.3    32    0.18   703    1    100.0   30 
 7/03/21 10:30a   17.8   17.8   15.7    77   13.7   0.0   ---  0.00   0.0   ---   17.8   18.0   18.0   22.9  1024.6  0.00   0.0   462    19.87    577     1.9  0.41   2.2   0.010   0.000   28.5    32    0.00   700    1    100.0   30 
 7/03/21 11:00a   20.2   20.2   17.8    65   13.4   0.0   ---  0.00   0.0   ---   20.2   20.3   20.3   26.1  1024.2  0.00   0.0   606    26.06    789     2.7  0.58   3.4   0.000   0.039   28.8    32    0.30   701    1    100.0   30 
 7/03/21 11:30a   22.6   22.6   20.2    57   13.6   0.0   ---  0.00   0.0   ---   22.6   22.6   22.6   28.4  1023.8  0.00   0.0   640    27.52    844     3.4  0.73   4.0   0.000   0.088   29.2    32    0.00   702    1    100.0   30 
 7/03/21 12:00p   25.2   25.2   22.6    42   11.3   0.0   ---  0.00   0.0   ---   25.2   24.8   24.8   30.7  1023.4  0.00   0.0   680    29.24    810     3.9  0.84   4.5   0.000   0.142   29.5    32    0.41   702    1    100.0   30 
 7/03/21 12:30p   26.7   26.7   25.2    34    9.5   0.0   ---  0.00   0.0   ---   26.7   25.8   25.8   31.8  1022.7  0.00   0.0   834    35.87    949     4.9  1.05   5.5   0.000   0.174   29.9    32    0.00   703    1    100.0   30 
 7/03/21  1:00p   27.7   27.7   26.7    30    8.6   0.0   ---  0.00   0.0   ---   27.7   26.7   26.7   31.9  1022.2  0.00   0.0   941    40.47   1104     5.5  1.18   6.2   0.000   0.196   30.4    32    0.56   655    1     95.8   30 
 7/03/21  1:30p   27.4   27.9   27.4    29    7.8   0.0   ---  0.00   0.0   ---   27.4   26.3   26.3   31.8  1021.9  0.00   0.0   621    26.71   1088     4.4  0.94   6.1   0.000   0.190   30.6    32    0.00   701    1    100.0   30 
 7/03/21  2:00p   28.3   28.3   27.4    27    7.5   0.0   ---  0.00   0.0   ---   28.3   27.0   27.0   33.0  1021.4  0.00   0.0   746    32.08   1074     4.9  1.05   6.2   0.000   0.207   31.1    31    0.48   700    1    100.0   30 
 7/03/21  2:30p   28.9   29.0   28.3    27    8.1   0.0   ---  0.00   0.0   ---   28.9   27.7   27.7   33.1  1021.0  0.00   0.0   878    37.76   1034     5.2  1.11   6.1   0.000   0.221   31.4    31    0.00   701    1    100.0   30 
 7/03/21  3:00p   28.1   29.0   27.7    27    7.3   0.0   ---  0.00   0.0   ---   28.1   26.8   26.8   31.4  1021.0  0.00   0.0   481    20.69    889     3.5  0.75   4.9   0.000   0.203   31.8    31    0.46   700    1    100.0   30 
 7/03/21  3:30p   28.9   28.9   28.1    26    7.5   0.0   ---  0.00   0.0   ---   28.9   27.6   27.6   33.2  1020.6  0.00   0.0   605    26.02    902     3.8  0.81   5.0   0.000   0.221   32.0    31    0.00   674    1     98.5   30 
 7/03/21  4:00p   29.1   29.3   28.6    27    8.2   0.0   ---  0.00   0.0   ---   29.1   27.9   27.9   32.9  1020.3  0.00   0.0   487    20.94    976     2.9  0.62   4.1   0.000   0.225   32.3    30    0.41   703    1    100.0   30 
 7/03/21  4:30p   28.6   29.3   28.3    26    7.2   0.0   ---  0.00   0.0   ---   28.6   27.2   27.2   31.1  1020.1  0.00   0.0   336    14.45    404     1.9  0.41   2.2   0.000   0.213   32.5    30    0.00   699    1    100.0   30 
 7/03/21  5:00p   28.7   29.0   28.6    26    7.3   0.0   ---  0.00   0.0   ---   28.7   27.3   27.3   32.3  1019.9  0.00   0.0   406    17.46    617     1.8  0.39   2.3   0.000   0.215   32.7    30    0.25   703    1    100.0   30 
 7/03/21  5:30p   28.8   29.1   28.7    25    6.8   0.0   ---  0.00   0.0   ---   28.8   27.4   27.4   31.8  1019.7  0.00   0.0   326    14.02    510     1.4  0.30   2.1   0.000   0.218   33.0    30    0.00   699    1    100.0   30 
 7/03/21  6:00p   28.2   28.7   28.2    26    6.8   0.0   ---  0.00   0.0   ---   28.2   26.8   26.8   29.3  1019.6  0.00   0.0   174     7.48    206     0.6  0.13   0.9   0.000   0.205   33.1    30    0.20   699    1    100.0   30 
 7/03/21  6:30p   27.9   28.2   27.9    26    6.7   0.0   ---  0.00   0.0   ---   27.9   26.6   26.6   28.6  1019.9  0.00   0.0   143     6.15    237     0.2  0.04   0.5   0.000   0.200   33.1    29    0.00   700    1    100.0   30 
 7/03/21  7:00p   28.0   28.2   27.9    26    6.7   0.0   ---  0.00   0.0   ---   28.0   26.7   26.7   26.6  1019.8  0.00   0.0   138     5.93    246     0.0  0.00   0.0   0.000   0.201   33.2    29    0.10   700    1    100.0   30 
 7/03/21  7:30p   27.2   28.0   27.2    28    7.1   0.0   ---  0.00   0.0   ---   27.2   26.0   26.0   24.6  1019.9  0.00   0.0    28     1.20     65     0.0  0.00   0.0   0.000   0.185   33.2    29    0.00   702    1    100.0   30 
 7/03/21  8:00p   24.7   27.2   24.7    43   11.3   0.0   ---  0.00   0.0   ---   24.7   24.4   24.4   22.8  1020.5  0.00   0.0     1     0.04      5     0.0  0.00   0.0   0.000   0.133   33.1    29    0.03   698    1    100.0   30 
 7/03/21  8:30p   23.2   24.7   23.2    49   11.9   0.0   ---  0.00   0.0   ---   23.2   23.0   23.0   21.4  1021.0  0.00   0.0     0     0.00      0     0.0  0.00   0.0   0.000   0.102   33.0    29    0.00   702    1    100.0   30 
 7/03/21  9:00p   22.1   23.2   22.1    53   12.1   0.0   ---  0.00   0.0   ---   22.1   21.7   21.7   20.1  1021.8  0.00   0.0     0     0.00      0     0.0  0.00   0.0   0.000   0.079   32.8    29    0.05   702    1    100.0   30 
 7/03/21  9:30p   21.6   22.1   21.6    53   11.6   0.0   ---  0.00   0.0   ---   21.6   20.9   20.9   19.3  1022.3  0.00   0.0     0     0.00      0     0.0  0.00   0.0   0.000   0.067   32.7    29    0.00   698    1    100.0   30 
 7/03/21 10:00p   21.0   21.6   21.0    54   11.3   0.0   ---  0.00   0.0   ---   21.0   20.3   20.3   18.7  1022.5  0.00   0.0     0     0.00      0     0.0  0.00   0.0   0.000   0.056   32.6    29    0.05   696    1    100.0   30 
 7/03/21 10:30p   20.4   20.9   20.4    54   10.8   0.0   ---  0.00   0.0   ---   20.4   19.8   19.8   18.2  1022.5  0.00   0.0     0     0.00      0     0.0  0.00   0.0   0.000   0.043   32.5    29    0.00   703    1    100.0   30 
 7/03/21 11:00p   19.8   20.4   19.8    58   11.3   0.0   ---  0.00   0.0   ---   19.8   19.6   19.6   17.9  1022.4  0.00   0.0     0     0.00      0     0.0  0.00   0.0   0.000   0.031   32.3    29    0.05   699    1    100.0   30 
 7/03/21 11:30p   19.2   19.8   19.2    60   11.2   0.0   ---  0.00   0.0   ---   19.2   18.8   18.8   17.2  1022.4  0.00   0.0     0     0.00      0     0.0  0.00   0.0   0.000   0.017   32.1    29    0.00   699    1    100.0   30 
 8/03/21 12:00a   19.2   19.2   19.1    66   12.7   0.0   ---  0.00   0.0   ---   19.2   19.2   19.2   17.7  1022.4  0.00   0.0     0     0.00      0     0.0  0.00   0.0   0.000   0.019   32.0    30    0.00   678    1     99.1   30 
 8/03/21 12:30a   19.2   19.3   19.2    72   14.0   0.0   ---  0.00   0.0   ---   19.2   19.4   19.4   18.0  1022.2  0.00   0.0     0     0.00      0     0.0  0.00   0.0   0.000   0.019   31.9    30    0.03   698    1    100.0   30 
 8/03/21  1:00a   18.6   19.2   18.6    74   13.8   0.0   ---  0.00   0.0   ---   18.6   18.7   18.7   17.2  1021.7  0.00   0.0     0     0.00      0     0.0  0.00   0.0   0.000   0.005   31.8    30    0.03   700    1    100.0   30 
 8/03/21  1:30a   18.3   18.6   18.3    79   14.6   0.0   ---  0.00   0.0   ---   18.3   18.7   18.7   17.2  1021.5  0.00   0.0     0     0.00      0     0.0  0.00   0.0   0.000   0.000   31.7    30    0.00   699    1    100.0   30 
 8/03/21  2:00a   18.0   18.3   18.0    80   14.5   0.0   ---  0.00   0.0   ---   18.0   18.3   18.3   16.9  1021.3  0.00   0.0     0     0.00      0     0.0  0.00   0.0   0.007   0.000   31.6    30    0.03   703    1    100.0   30 
 8/03/21  2:30a   17.9   18.0   17.9    82   14.8   0.0   ---  0.00   0.0   ---   17.9   18.3   18.3   16.8  1021.3  0.00   0.0     0     0.00      0     0.0  0.00   0.0   0.008   0.000   31.4    30    0.00   677    1     99.0   30 
 8/03/21  3:00a   17.7   17.9   17.7    83   14.8   0.0   ---  0.00   0.0   ---   17.7   18.0   18.0   16.6  1021.1  0.00   0.0     0     0.00      0     0.0  0.00   0.0   0.013   0.000   31.3    30    0.03   697    1    100.0   30 
 8/03/21  3:30a   17.6   17.7   17.6    84   14.8   0.0   ---  0.00   0.0   ---   17.6   17.8   17.8   16.4  1021.3  0.00   0.0     0     0.00      0     0.0  0.00   0.0   0.016   0.000   31.2    30    0.00   701    1    100.0   30 
 8/03/21  4:00a   17.4   17.6   17.4    84   14.7   0.0   ---  0.00   0.0   ---   17.4   17.7   17.7   16.2  1021.2  0.00   0.0     0     0.00      0     0.0  0.00   0.0   0.020   0.000   31.2    30    0.03   700    1    100.0   30 
 8/03/21  4:30a   17.3   17.4   17.2    85   14.7   0.0   ---  0.00   0.0   ---   17.3   17.6   17.6   16.1  1021.2  0.00   0.0     0     0.00      0     0.0  0.00   0.0   0.022   0.000   31.1    31    0.00   702    1    100.0   30 
 8/03/21  5:00a   17.1   17.3   17.1    86   14.7   0.0   ---  0.00   0.0   ---   17.1   17.4   17.4   15.9  1021.4  0.00   0.0     0     0.00      0     0.0  0.00   0.0   0.025   0.000   31.1    31    0.03   699    1    100.0   30 
 8/03/21  5:30a   17.0   17.1   17.0    87   14.8   0.0   ---  0.00   0.0   ---   17.0   17.3   17.3   15.8  1021.4  0.00   0.0     0     0.00      0     0.0  0.00   0.0   0.028   0.000   30.9    31    0.00   703    1    100.0   30 
 8/03/21  6:00a   16.6   17.0   16.6    88   14.6   0.0   ---  0.00   0.0   ---   16.6   16.8   16.8   15.4  1021.4  0.00   0.0     0     0.00      0     0.0  0.00   0.0   0.036   0.000   30.8    31    0.00   699    1    100.0   30 
 8/03/21  6:30a   16.5   16.6   16.5    89   14.7   0.0   ---  0.00   0.0   ---   16.5   16.7   16.7   15.3  1022.0  0.00   0.0     0     0.00      0     0.0  0.00   0.0   0.038   0.000   30.7    31    0.00   666    1     97.4   30 
 8/03/21  7:00a   16.6   16.6   16.5    89   14.7   0.0   ---  0.00   0.0   ---   16.6   16.8   16.8   15.3  1021.8  0.00   0.0     0     0.00      0     0.0  0.00   0.0   0.037   0.000   30.7    32    0.00   699    1    100.0   30 
 8/03/21  7:30a   16.4   16.6   16.4    89   14.6   0.0   ---  0.00   0.0   ---   16.4   16.7   16.7   15.8  1022.2  0.00   0.0     4     0.17     14     0.0  0.00   0.0   0.039   0.000   30.6    32    0.00   700    1    100.0   30 
 8/03/21  8:00a   16.9   16.9   16.4    89   15.1   0.0   ---  0.00   0.0   ---   16.9   17.2   17.2   16.9  1022.5  0.00   0.0    32     1.38     42     0.0  0.00   0.0   0.030   0.000   30.6    32    0.00   703    1    100.0   30 
 8/03/21  8:30a   17.3   17.3   16.9    88   15.3   0.0   ---  0.00   0.0   ---   17.3   17.6   17.6   17.9  1022.7  0.00   0.0    58     2.49     98     0.0  0.00   0.0   0.022   0.000   30.6    32    0.00   701    1    100.0   30 
 8/03/21  9:00a   17.6   17.6   17.3    87   15.4   0.0   ---  0.00   0.0   ---   17.6   18.0   18.0   18.6  1022.9  0.00   0.0    85     3.66    118     0.0  0.00   0.0   0.015   0.000   30.6    32    0.05   703    1    100.0   30 
 8/03/21  9:30a   17.8   17.8   17.6    87   15.6   0.0   ---  0.00   0.0   ---   17.8   18.2   18.2   19.1  1023.1  0.00   0.0   109     4.69    142     0.0  0.00   0.0   0.010   0.000   30.6    32    0.00   696    1    100.0   30 
 8/03/21 10:00a   18.2   18.2   17.8    87   16.0   0.0   ---  0.00   0.0   ---   18.2   18.6   18.6   20.5  1023.2  0.00   0.0   183     7.87    225     0.7  0.15   0.9   0.003   0.000   30.7    32    0.08   698    1    100.0   30 
 8/03/21 10:30a   18.7   18.7   18.2    83   15.7   0.0   ---  0.00   0.0   ---   18.7   19.2   19.2   21.4  1023.4  0.00   0.0   224     9.63    285     1.0  0.21   1.3   0.000   0.007   30.7    33    0.00   700    1    100.0   30 
 8/03/21 11:00a   19.6   19.6   18.7    79   15.8   0.0   ---  0.00   0.0   ---   19.6   20.2   20.2   23.4  1023.5  0.00   0.0   311    13.37    478     1.5  0.32   2.0   0.000   0.025   30.9    33    0.15   700    1    100.0   30 
 8/03/21 11:30a   19.8   19.8   19.6    76   15.5   0.0   ---  0.00   0.0   ---   19.8   20.3   20.3   23.0  1023.4  0.00   0.0   274    11.78    327     1.6  0.34   2.0   0.000   0.031   31.1    33    0.00   700    1    100.0   30 
 8/03/21 12:00p   20.1   20.3   19.8    76   15.7   0.0   ---  0.00   0.0   ---   20.1   20.6   20.6   24.1  1023.3  0.00   0.0   341    14.66    766     2.2  0.47   3.8   0.000   0.036   31.3    33    0.18   699    1    100.0   30 
 8/03/21 12:30p   20.2   20.2   20.0    72   15.0   0.0   ---  0.00   0.0   ---   20.2   20.6   20.6   23.9  1023.1  0.00   0.0   334    14.36    446     2.2  0.47   2.9   0.000   0.039   31.6    33    0.00   702    1    100.0   30 
 8/03/21  1:00p   19.4   20.2   19.4    77   15.3   0.0   ---  0.00   0.0   ---   19.4   19.9   19.9   21.2  1022.9  0.00   0.0   162     6.97    207     1.1  0.24   1.4   0.000   0.023   31.7    33    0.15   700    1    100.0   30 
 8/03/21  1:30p   19.6   19.6   19.2    79   15.8   0.0   ---  0.00   0.0   ---   19.6   20.2   20.2   24.2  1022.7  0.25   0.0   393    16.90    712     2.8  0.60   4.9   0.000   0.025   31.7    33    0.00   703    1    100.0   30 
 8/03/21  2:00p   20.6   20.6   19.6    73   15.5   0.0   ---  0.00   0.0   ---   20.6   21.0   21.0   25.5  1022.6  0.00   0.0   449    19.31    684     3.2  0.69   4.5   0.000   0.046   31.8    33    0.00   700    1    100.0   30 
 8/03/21  2:30p   19.2   20.6   19.2    82   16.0   0.0   ---  0.00   0.0   ---   19.2   19.8   19.8   20.8  1022.6  0.51   1.8   145     6.24    239     1.0  0.21   1.7   0.000   0.017   31.9    33    0.25   698    1    100.0   30 
 8/03/21  3:00p   18.6   19.2   18.6    86   16.2   0.0   ---  0.00   0.0   ---   18.6   19.1   19.1   19.8  1022.6  0.76  10.7   118     5.07    178     0.7  0.15   1.1   0.000   0.005   31.9    34    0.08   699    1    100.0   30 
 8/03/21  3:30p   17.9   18.6   17.9    89   16.0   0.0   ---  0.00   0.0   ---   17.9   18.3   18.3   18.9  1022.4  0.76   4.6   109     4.69    134     0.7  0.15   0.8   0.009   0.000   31.9    34    0.00   676    1     98.8   30 
 8/03/21  4:00p   17.1   18.0   17.1    90   15.5   0.0   ---  0.00   0.0   ---   17.1   17.5   17.5   17.7  1022.4  0.76   2.5    75     3.23    107     0.2  0.04   0.5   0.025   0.000   31.8    34    0.05   701    1    100.0   30 
 8/03/21  4:30p   16.8   17.1   16.8    92   15.5   0.0   ---  0.00   0.0   ---   16.8   17.1   17.1   17.4  1022.6  0.25   1.3    74     3.18    105     0.1  0.02   0.5   0.032   0.000   31.8    34    0.00   702    1    100.0   30 
 8/03/21  5:00p   16.4   16.8   16.4    93   15.3   0.0   ---  0.00   0.0   ---   16.4   16.7   16.7   16.9  1022.7  0.76   8.1    67     2.88     97     0.0  0.00   0.0   0.041   0.000   31.7    35    0.05   702    1    100.0   30 
 8/03/21  5:30p   16.1   16.4   16.0    93   14.9   0.0   ---  0.00   0.0   ---   16.1   16.3   16.3   15.9  1023.0  0.76   2.8    30     1.29     46     0.0  0.00   0.0   0.047   0.000   31.6    35    0.00   700    1    100.0   30 
 8/03/21  6:00p   15.9   16.2   15.9    93   14.8   0.0   ---  0.00   0.0   ---   15.9   16.2   16.2   15.7  1023.4  0.25   1.3    22     0.95     39     0.0  0.00   0.0   0.050   0.000   31.4    35    0.03   701    1    100.0   30 
 8/03/21  6:30p   15.6   15.9   15.6    94   14.6   0.0   ---  0.00   0.0   ---   15.6   15.8   15.8   15.2  1023.9  1.02  11.4    14     0.60     19     0.0  0.00   0.0   0.058   0.000   31.3    35    0.00   701    1    100.0   30 
 8/03/21  7:00p   14.9   15.6   14.9    94   14.0   0.0   ---  0.00   0.0   ---   14.9   15.2   15.2   14.1  1024.3  1.52   6.6     8     0.34     11     0.0  0.00   0.0   0.071   0.000   31.2    36    0.00   699    1    100.0   30 
 8/03/21  7:30p   15.0   15.1   14.9    95   14.2   0.0   ---  0.00   0.0   ---   15.0   15.2   15.2   14.2  1024.7  1.02   3.8    11     0.47     19     0.0  0.00   0.0   0.069   0.000   31.1    36    0.00   701    1    100.0   30 
 8/03/21  8:00p   14.2   15.0   14.2    94   13.3   0.0   ---  0.00   0.0   ---   14.2   14.3   14.3   13.1  1025.0  0.00   0.0     0     0.00      7     0.0  0.00   0.0   0.086   0.000   30.9    36    0.00   692    1    100.0   30 
 8/03/21  8:30p   14.1   14.2   14.1    94   13.1   0.0   ---  0.00   0.0   ---   14.1   14.2   14.2   12.9  1025.6  0.00   0.0     0     0.00      0     0.0  0.00   0.0   0.089   0.000   30.8    36    0.00   700    1    100.0   30 
 8/03/21  9:00p   14.2   14.3   14.1    95   13.4   0.0   ---  0.00   0.0   ---   14.2   14.4   14.4   13.2  1026.0  0.00   0.0     0     0.00      0     0.0  0.00   0.0   0.086   0.000   30.7    36    0.00   701    1    100.0   30 
 8/03/21  9:30p   14.4   14.4   14.2    95   13.6   0.0   ---  0.00   0.0   ---   14.4   14.6   14.6   13.3  1026.4  0.00   0.0     0     0.00      0     0.0  0.00   0.0   0.082   0.000   30.6    36    0.00   701    1    100.0   30 
 8/03/21 10:00p   14.5   14.6   14.4    95   13.7   0.0   ---  0.00   0.0   ---   14.5   14.7   14.7   13.4  1026.5  0.00   0.0     0     0.00      0     0.0  0.00   0.0   0.080   0.000   30.6    36    0.00   700    1    100.0   30 
 8/03/21 10:30p   14.6   14.7   14.4    95   13.8   0.0   ---  0.00   0.0   ---   14.6   14.8   14.8   13.6  1026.6  0.25   0.0     0     0.00      0     0.0  0.00   0.0   0.078   0.000   30.5    36    0.00   701    1    100.0   30 
 8/03/21 11:00p   14.7   14.7   14.6    96   14.1   0.0   ---  0.00   0.0   ---   14.7   14.9   14.9   13.7  1026.5  1.27   6.9     0     0.00      0     0.0  0.00   0.0   0.075   0.000   30.5    36    0.00   701    1    100.0   30 
 8/03/21 11:30p   14.8   14.8   14.7    96   14.1   0.0   ---  0.00   0.0   ---   14.8   15.0   15.0   13.8  1026.5  2.54  17.3     0     0.00      0     0.0  0.00   0.0   0.074   0.000   30.4    36    0.00   702    1    100.0   30 
 9/03/21 12:00a   14.7   14.8   14.7    96   14.1   0.0   ---  0.00   0.0   ---   14.7   14.9   14.9   13.7  1026.7  0.00   0.0     0     0.00      0     0.0  0.00   0.0   0.075   0.000   30.4    36    0.00   703    1    100.0   30 
 9/03/21 12:30a   14.8   14.9   14.7    96   14.2   0.0   ---  0.00   0.0   ---   14.8   15.1   15.1   13.8  1026.6  0.25   0.0     0     0.00      0     0.0  0.00   0.0   0.073   0.000   30.3    36    0.00   699    1    100.0   30 
 9/03/21  1:00a   15.1   15.1   14.9    96   14.5   0.0   ---  0.00   0.0   ---   15.1   15.3   15.3   14.1  1026.8  0.25   0.0     0     0.00      0     0.0  0.00   0.0   0.067   0.000   30.3    36    0.00   699    1    100.0   30 
 9/03/21  1:30a   14.8   15.1   14.8    96   14.2   0.0   ---  0.00   0.0   ---   14.8   15.1   15.1   13.8  1027.0  0.00   0.0     0     0.00      0     0.0  0.00   0.0   0.073   0.000   30.3    36    0.00   700    1    100.0   30 
 9/03/21  2:00a   14.4   14.8   14.4    96   13.8   0.0   ---  0.00   0.0   ---   14.4   14.6   14.6   13.4  1027.0  0.00   0.0     0     0.00      0     0.0  0.00   0.0   0.081   0.000   30.2    36    0.00   700    1    100.0   30 
 9/03/21  2:30a   14.2   14.4   14.1    96   13.5   0.0   ---  0.00   0.0   ---   14.2   14.3   14.3   13.1  1027.0  0.00   0.0     0     0.00      0     0.0  0.00   0.0   0.087   0.000   30.2    37    0.00   699    1    100.0   30 
 9/03/21  3:00a   13.4   14.1   13.4    95   12.7   0.0   ---  0.00   0.0   ---   13.4   13.6   13.6   12.3  1026.9  0.00   0.0     0     0.00      0     0.0  0.00   0.0   0.102   0.000   30.1    37    0.00   700    1    100.0   30 
 9/03/21  3:30a   12.8   13.4   12.8    95   12.0   0.0   ---  0.00   0.0   ---   12.8   12.9   12.9   11.6  1027.1  0.00   0.0     0     0.00      0     0.0  0.00   0.0   0.116   0.000   29.8    37    0.00   702    1    100.0   30 
 9/03/21  4:00a   12.6   12.8   12.6    96   12.0   0.0   ---  0.00   0.0   ---   12.6   12.7   12.7   11.4  1027.2  0.00   0.0     0     0.00      0     0.0  0.00   0.0   0.119   0.000   29.7    37    0.00   702    1    100.0   30 
 9/03/21  4:30a   12.8   12.8   12.6    96   12.2   0.0   ---  0.00   0.0   ---   12.8   12.9   12.9   11.6  1027.4  0.00   0.0     0     0.00      0     0.0  0.00   0.0   0.116   0.000   29.6    37    0.00   701    1    100.0   30 
 9/03/21  5:00a   12.9   12.9   12.7    96   12.3   0.0   ---  0.00   0.0   ---   12.9   13.0   13.0   11.7  1027.6  0.00   0.0     0     0.00      0     0.0  0.00   0.0   0.113   0.000   29.5    37    0.00   701    1    100.0   30 
 9/03/21  5:30a   13.1   13.1   12.9    96   12.5   0.0   ---  0.00   0.0   ---   13.1   13.2   13.2   11.9  1027.6  0.00   0.0     0     0.00      0     0.0  0.00   0.0   0.109   0.000   29.4    37    0.00   698    1    100.0   30 
 9/03/21  6:00a   13.3   13.4   13.1    96   12.7   0.0   ---  0.00   0.0   ---   13.3   13.4   13.4   12.2  1027.8  0.00   0.0     0     0.00      0     0.0  0.00   0.0   0.104   0.000   29.4    37    0.00   700    1    100.0   30 
 9/03/21  6:30a   13.3   13.3   13.3    96   12.7   0.0   ---  0.00   0.0   ---   13.3   13.4   13.4   12.1  1028.0  0.00   0.0     0     0.00      0     0.0  0.00   0.0   0.105   0.000   29.4    37    0.00   701    1    100.0   30 
 9/03/21  7:00a   13.3   13.3   13.3    97   12.9   0.0   ---  0.00   0.0   ---   13.3   13.5   13.5   12.2  1028.3  0.51   1.3     0     0.00      0     0.0  0.00   0.0   0.104   0.000   29.3    37    0.00   701    1    100.0   30 
 9/03/21  7:30a   13.3   13.4   13.3    96   12.7   0.0   ---  0.00   0.0   ---   13.3   13.4   13.4   12.3  1028.8  0.25   1.3     1     0.04      9     0.0  0.00   0.0   0.105   0.000   29.3    37    0.00   701    1    100.0   30 
 9/03/21  8:00a   13.3   13.3   13.2    97   12.8   0.0   ---  0.00   0.0   ---   13.3   13.4   13.4   12.8  1029.2  0.25   1.0    19     0.82     32     0.0  0.00   0.0   0.105   0.000   29.3    37    0.00   701    1    100.0   30